<?xml version="1.0" encoding="UTF-8" standalone="no" ?>
<gpx xmlns="http://www.topografix.com/GPX/1/1" xmlns:xsi="http://www.w3.org/2001/XMLSchema-instance" xsi:schemaLocation="http://www.topografix.com/GPX/1/1 http://www.topografix.com/GPX/1/1/gpx.xsd" version="1.1" creator="VisuGPX - https://www.visugpx.com">
  <metadata>
    <name>st remy-le pontet</name>
    <desc><![CDATA[st remy-le pontet]]></desc>
  </metadata>
  <trk>
    <name><![CDATA[Sequence 1]]></name>
    <trkseg>
      <trkpt lat="43.78232" lon="4.81943">
        <ele>97</ele>
        <time>2012-04-23T18:07:56</time>
      </trkpt>
      <trkpt lat="43.78227" lon="4.8195">
        <ele>87.300003051758</ele>
        <time>2012-04-23T18:07:59</time>
      </trkpt>
      <trkpt lat="43.78225" lon="4.81955">
        <ele>79.199996948242</ele>
        <time>2012-04-23T18:08:02</time>
      </trkpt>
      <trkpt lat="43.7821" lon="4.81959">
        <ele>69.300003051758</ele>
        <time>2012-04-23T18:08:19</time>
      </trkpt>
      <trkpt lat="43.782" lon="4.81961">
        <ele>67.599998474121</ele>
        <time>2012-04-23T18:08:22</time>
      </trkpt>
      <trkpt lat="43.78196" lon="4.81963">
        <ele>63.400001525879</ele>
        <time>2012-04-23T18:08:24</time>
      </trkpt>
      <trkpt lat="43.78199" lon="4.81969">
        <ele>62.5</ele>
        <time>2012-04-23T18:08:30</time>
      </trkpt>
      <trkpt lat="43.78207" lon="4.82006">
        <ele>59.199996948242</ele>
        <time>2012-04-23T18:08:34</time>
      </trkpt>
      <trkpt lat="43.78217" lon="4.82051">
        <ele>58.199996948242</ele>
        <time>2012-04-23T18:08:37</time>
      </trkpt>
      <trkpt lat="43.78224" lon="4.82111">
        <ele>60.199996948242</ele>
        <time>2012-04-23T18:08:41</time>
      </trkpt>
      <trkpt lat="43.78229" lon="4.82136">
        <ele>62.5</ele>
        <time>2012-04-23T18:08:43</time>
      </trkpt>
      <trkpt lat="43.78249" lon="4.82163">
        <ele>61.599998474121</ele>
        <time>2012-04-23T18:08:46</time>
      </trkpt>
      <trkpt lat="43.78289" lon="4.82195">
        <ele>63.400001525879</ele>
        <time>2012-04-23T18:08:50</time>
      </trkpt>
      <trkpt lat="43.7832" lon="4.8223">
        <ele>63.400001525879</ele>
        <time>2012-04-23T18:08:53</time>
      </trkpt>
      <trkpt lat="43.7835" lon="4.82271">
        <ele>63</ele>
        <time>2012-04-23T18:08:56</time>
      </trkpt>
      <trkpt lat="43.78381" lon="4.8231">
        <ele>59</ele>
        <time>2012-04-23T18:08:59</time>
      </trkpt>
      <trkpt lat="43.78412" lon="4.82347">
        <ele>58.699996948242</ele>
        <time>2012-04-23T18:09:02</time>
      </trkpt>
      <trkpt lat="43.7844" lon="4.82386">
        <ele>57.099998474121</ele>
        <time>2012-04-23T18:09:05</time>
      </trkpt>
      <trkpt lat="43.78449" lon="4.82398">
        <ele>58.900001525879</ele>
        <time>2012-04-23T18:09:06</time>
      </trkpt>
      <trkpt lat="43.78476" lon="4.82446">
        <ele>58.699996948242</ele>
        <time>2012-04-23T18:09:11</time>
      </trkpt>
      <trkpt lat="43.7849" lon="4.82467">
        <ele>62.099998474121</ele>
        <time>2012-04-23T18:09:14</time>
      </trkpt>
      <trkpt lat="43.78506" lon="4.82489">
        <ele>65.199996948242</ele>
        <time>2012-04-23T18:09:17</time>
      </trkpt>
      <trkpt lat="43.78517" lon="4.8251">
        <ele>68.199996948242</ele>
        <time>2012-04-23T18:09:20</time>
      </trkpt>
      <trkpt lat="43.78528" lon="4.82533">
        <ele>66.199996948242</ele>
        <time>2012-04-23T18:09:23</time>
      </trkpt>
      <trkpt lat="43.78542" lon="4.82557">
        <ele>67.800003051758</ele>
        <time>2012-04-23T18:09:26</time>
      </trkpt>
      <trkpt lat="43.78554" lon="4.82577">
        <ele>67.699996948242</ele>
        <time>2012-04-23T18:09:28</time>
      </trkpt>
      <trkpt lat="43.78577" lon="4.82604">
        <ele>65.5</ele>
        <time>2012-04-23T18:09:32</time>
      </trkpt>
      <trkpt lat="43.78599" lon="4.82633">
        <ele>64.099998474121</ele>
        <time>2012-04-23T18:09:36</time>
      </trkpt>
      <trkpt lat="43.78618" lon="4.82654">
        <ele>64.5</ele>
        <time>2012-04-23T18:09:39</time>
      </trkpt>
      <trkpt lat="43.78637" lon="4.82682">
        <ele>63.599998474121</ele>
        <time>2012-04-23T18:09:42</time>
      </trkpt>
      <trkpt lat="43.78643" lon="4.82691">
        <ele>63.599998474121</ele>
        <time>2012-04-23T18:09:43</time>
      </trkpt>
      <trkpt lat="43.78677" lon="4.82738">
        <ele>63.5</ele>
        <time>2012-04-23T18:09:48</time>
      </trkpt>
      <trkpt lat="43.78694" lon="4.82762">
        <ele>63.099998474121</ele>
        <time>2012-04-23T18:09:51</time>
      </trkpt>
      <trkpt lat="43.78712" lon="4.82783">
        <ele>62.300003051758</ele>
        <time>2012-04-23T18:09:54</time>
      </trkpt>
      <trkpt lat="43.78723" lon="4.82799">
        <ele>61.400001525879</ele>
        <time>2012-04-23T18:09:57</time>
      </trkpt>
      <trkpt lat="43.7873" lon="4.82799">
        <ele>62.400001525879</ele>
        <time>2012-04-23T18:09:59</time>
      </trkpt>
      <trkpt lat="43.78742" lon="4.82794">
        <ele>63.199996948242</ele>
        <time>2012-04-23T18:10:02</time>
      </trkpt>
      <trkpt lat="43.7876" lon="4.82785">
        <ele>63.599998474121</ele>
        <time>2012-04-23T18:10:06</time>
      </trkpt>
      <trkpt lat="43.78768" lon="4.82777">
        <ele>63.800003051758</ele>
        <time>2012-04-23T18:10:09</time>
      </trkpt>
      <trkpt lat="43.78774" lon="4.82776">
        <ele>62.699996948242</ele>
        <time>2012-04-23T18:10:10</time>
      </trkpt>
      <trkpt lat="43.78801" lon="4.82764">
        <ele>58.900001525879</ele>
        <time>2012-04-23T18:10:15</time>
      </trkpt>
      <trkpt lat="43.78818" lon="4.82761">
        <ele>58.400001525879</ele>
        <time>2012-04-23T18:10:18</time>
      </trkpt>
      <trkpt lat="43.78826" lon="4.82759">
        <ele>58.599998474121</ele>
        <time>2012-04-23T18:10:19</time>
      </trkpt>
      <trkpt lat="43.78846" lon="4.82757">
        <ele>57.599998474121</ele>
        <time>2012-04-23T18:10:24</time>
      </trkpt>
      <trkpt lat="43.78848" lon="4.82757">
        <ele>57.900001525879</ele>
        <time>2012-04-23T18:10:27</time>
      </trkpt>
      <trkpt lat="43.78865" lon="4.82756">
        <ele>55.900001525879</ele>
        <time>2012-04-23T18:10:35</time>
      </trkpt>
      <trkpt lat="43.78879" lon="4.82754">
        <ele>56.800003051758</ele>
        <time>2012-04-23T18:10:39</time>
      </trkpt>
      <trkpt lat="43.78881" lon="4.82759">
        <ele>57.5</ele>
        <time>2012-04-23T18:10:42</time>
      </trkpt>
      <trkpt lat="43.78883" lon="4.82773">
        <ele>54.400001525879</ele>
        <time>2012-04-23T18:10:44</time>
      </trkpt>
      <trkpt lat="43.78882" lon="4.8279">
        <ele>53.199996948242</ele>
        <time>2012-04-23T18:10:46</time>
      </trkpt>
      <trkpt lat="43.78872" lon="4.82851">
        <ele>53.5</ele>
        <time>2012-04-23T18:10:51</time>
      </trkpt>
      <trkpt lat="43.78871" lon="4.82874">
        <ele>50.599998474121</ele>
        <time>2012-04-23T18:10:53</time>
      </trkpt>
      <trkpt lat="43.78866" lon="4.82919">
        <ele>54.400001525879</ele>
        <time>2012-04-23T18:10:57</time>
      </trkpt>
      <trkpt lat="43.78864" lon="4.82935">
        <ele>53.099998474121</ele>
        <time>2012-04-23T18:10:59</time>
      </trkpt>
      <trkpt lat="43.78861" lon="4.8296">
        <ele>49.300003051758</ele>
        <time>2012-04-23T18:11:02</time>
      </trkpt>
      <trkpt lat="43.78861" lon="4.8297">
        <ele>44.599998474121</ele>
        <time>2012-04-23T18:11:05</time>
      </trkpt>
      <trkpt lat="43.78858" lon="4.82983">
        <ele>51.800003051758</ele>
        <time>2012-04-23T18:11:09</time>
      </trkpt>
      <trkpt lat="43.78855" lon="4.82991">
        <ele>52.400001525879</ele>
        <time>2012-04-23T18:11:11</time>
      </trkpt>
      <trkpt lat="43.78854" lon="4.82996">
        <ele>55.099998474121</ele>
        <time>2012-04-23T18:11:14</time>
      </trkpt>
      <trkpt lat="43.78837" lon="4.83012">
        <ele>57</ele>
        <time>2012-04-23T18:11:24</time>
      </trkpt>
      <trkpt lat="43.78831" lon="4.83014">
        <ele>56.800003051758</ele>
        <time>2012-04-23T18:11:25</time>
      </trkpt>
      <trkpt lat="43.78797" lon="4.83032">
        <ele>53.099998474121</ele>
        <time>2012-04-23T18:11:29</time>
      </trkpt>
      <trkpt lat="43.78772" lon="4.83052">
        <ele>52.699996948242</ele>
        <time>2012-04-23T18:11:33</time>
      </trkpt>
      <trkpt lat="43.78769" lon="4.83058">
        <ele>50.599998474121</ele>
        <time>2012-04-23T18:11:34</time>
      </trkpt>
      <trkpt lat="43.78762" lon="4.83083">
        <ele>48.699996948242</ele>
        <time>2012-04-23T18:11:37</time>
      </trkpt>
      <trkpt lat="43.78757" lon="4.83124">
        <ele>44.900001525879</ele>
        <time>2012-04-23T18:11:41</time>
      </trkpt>
      <trkpt lat="43.78759" lon="4.8317">
        <ele>51.900001525879</ele>
        <time>2012-04-23T18:11:45</time>
      </trkpt>
      <trkpt lat="43.78759" lon="4.8318">
        <ele>52.800003051758</ele>
        <time>2012-04-23T18:11:46</time>
      </trkpt>
      <trkpt lat="43.78772" lon="4.8323">
        <ele>52.199996948242</ele>
        <time>2012-04-23T18:11:51</time>
      </trkpt>
      <trkpt lat="43.78796" lon="4.83245">
        <ele>46.900001525879</ele>
        <time>2012-04-23T18:11:54</time>
      </trkpt>
      <trkpt lat="43.78801" lon="4.83268">
        <ele>52.699996948242</ele>
        <time>2012-04-23T18:11:56</time>
      </trkpt>
      <trkpt lat="43.78812" lon="4.83296">
        <ele>61.300003051758</ele>
        <time>2012-04-23T18:11:59</time>
      </trkpt>
      <trkpt lat="43.78835" lon="4.83311">
        <ele>64</ele>
        <time>2012-04-23T18:12:03</time>
      </trkpt>
      <trkpt lat="43.78849" lon="4.83308">
        <ele>65.900001525879</ele>
        <time>2012-04-23T18:12:05</time>
      </trkpt>
      <trkpt lat="43.78869" lon="4.83321">
        <ele>65.099998474121</ele>
        <time>2012-04-23T18:12:09</time>
      </trkpt>
      <trkpt lat="43.78871" lon="4.83325">
        <ele>67.300003051758</ele>
        <time>2012-04-23T18:12:11</time>
      </trkpt>
      <trkpt lat="43.78874" lon="4.83329">
        <ele>68.300003051758</ele>
        <time>2012-04-23T18:12:13</time>
      </trkpt>
      <trkpt lat="43.78892" lon="4.83344">
        <ele>67.800003051758</ele>
        <time>2012-04-23T18:12:17</time>
      </trkpt>
      <trkpt lat="43.7891" lon="4.8335">
        <ele>64.300003051758</ele>
        <time>2012-04-23T18:12:20</time>
      </trkpt>
      <trkpt lat="43.78922" lon="4.83349">
        <ele>65.300003051758</ele>
        <time>2012-04-23T18:12:23</time>
      </trkpt>
      <trkpt lat="43.78926" lon="4.83349">
        <ele>59.199996948242</ele>
        <time>2012-04-23T18:12:25</time>
      </trkpt>
      <trkpt lat="43.78935" lon="4.83347">
        <ele>57.099998474121</ele>
        <time>2012-04-23T18:12:30</time>
      </trkpt>
      <trkpt lat="43.78949" lon="4.83347">
        <ele>58.5</ele>
        <time>2012-04-23T18:12:32</time>
      </trkpt>
      <trkpt lat="43.78974" lon="4.83346">
        <ele>58.400001525879</ele>
        <time>2012-04-23T18:12:35</time>
      </trkpt>
      <trkpt lat="43.79012" lon="4.83342">
        <ele>59.099998474121</ele>
        <time>2012-04-23T18:12:39</time>
      </trkpt>
      <trkpt lat="43.79022" lon="4.83341">
        <ele>58.800003051758</ele>
        <time>2012-04-23T18:12:40</time>
      </trkpt>
      <trkpt lat="43.79053" lon="4.8334">
        <ele>58.699996948242</ele>
        <time>2012-04-23T18:12:43</time>
      </trkpt>
      <trkpt lat="43.79085" lon="4.83339">
        <ele>56.800003051758</ele>
        <time>2012-04-23T18:12:46</time>
      </trkpt>
      <trkpt lat="43.79142" lon="4.8334">
        <ele>54.900001525879</ele>
        <time>2012-04-23T18:12:51</time>
      </trkpt>
      <trkpt lat="43.79154" lon="4.83342">
        <ele>54.099998474121</ele>
        <time>2012-04-23T18:12:52</time>
      </trkpt>
      <trkpt lat="43.79181" lon="4.83347">
        <ele>54.300003051758</ele>
        <time>2012-04-23T18:12:55</time>
      </trkpt>
      <trkpt lat="43.79205" lon="4.83343">
        <ele>53.099998474121</ele>
        <time>2012-04-23T18:12:58</time>
      </trkpt>
      <trkpt lat="43.79214" lon="4.83341">
        <ele>53.099998474121</ele>
        <time>2012-04-23T18:13:02</time>
      </trkpt>
      <trkpt lat="43.7922" lon="4.83341">
        <ele>52.199996948242</ele>
        <time>2012-04-23T18:13:06</time>
      </trkpt>
      <trkpt lat="43.79229" lon="4.8334">
        <ele>49.900001525879</ele>
        <time>2012-04-23T18:13:09</time>
      </trkpt>
      <trkpt lat="43.7923" lon="4.83341">
        <ele>50.400001525879</ele>
        <time>2012-04-23T18:13:10</time>
      </trkpt>
      <trkpt lat="43.79236" lon="4.8334">
        <ele>50.300003051758</ele>
        <time>2012-04-23T18:13:14</time>
      </trkpt>
      <trkpt lat="43.7924" lon="4.83339">
        <ele>51.5</ele>
        <time>2012-04-23T18:13:19</time>
      </trkpt>
      <trkpt lat="43.79243" lon="4.83339">
        <ele>52.199996948242</ele>
        <time>2012-04-23T18:13:22</time>
      </trkpt>
      <trkpt lat="43.79247" lon="4.83339">
        <ele>52.900001525879</ele>
        <time>2012-04-23T18:13:25</time>
      </trkpt>
      <trkpt lat="43.79252" lon="4.83339">
        <ele>52</ele>
        <time>2012-04-23T18:13:28</time>
      </trkpt>
      <trkpt lat="43.79262" lon="4.8334">
        <ele>50</ele>
        <time>2012-04-23T18:13:40</time>
      </trkpt>
      <trkpt lat="43.79278" lon="4.8335">
        <ele>45.699996948242</ele>
        <time>2012-04-23T18:13:43</time>
      </trkpt>
      <trkpt lat="43.793" lon="4.83343">
        <ele>44.800003051758</ele>
        <time>2012-04-23T18:13:46</time>
      </trkpt>
      <trkpt lat="43.79329" lon="4.83342">
        <ele>46.300003051758</ele>
        <time>2012-04-23T18:13:49</time>
      </trkpt>
      <trkpt lat="43.79358" lon="4.83341">
        <ele>43</ele>
        <time>2012-04-23T18:13:52</time>
      </trkpt>
      <trkpt lat="43.79383" lon="4.83339">
        <ele>44.900001525879</ele>
        <time>2012-04-23T18:13:55</time>
      </trkpt>
      <trkpt lat="43.79415" lon="4.8334">
        <ele>45.300003051758</ele>
        <time>2012-04-23T18:13:58</time>
      </trkpt>
      <trkpt lat="43.79435" lon="4.83338">
        <ele>47.300003051758</ele>
        <time>2012-04-23T18:14:00</time>
      </trkpt>
      <trkpt lat="43.79457" lon="4.83335">
        <ele>48.800003051758</ele>
        <time>2012-04-23T18:14:02</time>
      </trkpt>
      <trkpt lat="43.79514" lon="4.83335">
        <ele>44.599998474121</ele>
        <time>2012-04-23T18:14:07</time>
      </trkpt>
      <trkpt lat="43.79538" lon="4.83334">
        <ele>44.099998474121</ele>
        <time>2012-04-23T18:14:09</time>
      </trkpt>
      <trkpt lat="43.79574" lon="4.83334">
        <ele>40.900001525879</ele>
        <time>2012-04-23T18:14:13</time>
      </trkpt>
      <trkpt lat="43.79594" lon="4.83333">
        <ele>43.099998474121</ele>
        <time>2012-04-23T18:14:16</time>
      </trkpt>
      <trkpt lat="43.79612" lon="4.83336">
        <ele>40.400001525879</ele>
        <time>2012-04-23T18:14:18</time>
      </trkpt>
      <trkpt lat="43.79635" lon="4.83335">
        <ele>41.800003051758</ele>
        <time>2012-04-23T18:14:20</time>
      </trkpt>
      <trkpt lat="43.79695" lon="4.83339">
        <ele>41.5</ele>
        <time>2012-04-23T18:14:25</time>
      </trkpt>
      <trkpt lat="43.79705" lon="4.8334">
        <ele>40.300003051758</ele>
        <time>2012-04-23T18:14:26</time>
      </trkpt>
      <trkpt lat="43.79734" lon="4.83343">
        <ele>37.599998474121</ele>
        <time>2012-04-23T18:14:30</time>
      </trkpt>
      <trkpt lat="43.7975" lon="4.83349">
        <ele>35.300003051758</ele>
        <time>2012-04-23T18:14:32</time>
      </trkpt>
      <trkpt lat="43.79782" lon="4.83355">
        <ele>35.800003051758</ele>
        <time>2012-04-23T18:14:36</time>
      </trkpt>
      <trkpt lat="43.79804" lon="4.8338">
        <ele>36.5</ele>
        <time>2012-04-23T18:14:40</time>
      </trkpt>
      <trkpt lat="43.79825" lon="4.83392">
        <ele>36.199996948242</ele>
        <time>2012-04-23T18:14:43</time>
      </trkpt>
      <trkpt lat="43.79841" lon="4.83381">
        <ele>37.300003051758</ele>
        <time>2012-04-23T18:14:45</time>
      </trkpt>
      <trkpt lat="43.79858" lon="4.83369">
        <ele>38.199996948242</ele>
        <time>2012-04-23T18:14:47</time>
      </trkpt>
      <trkpt lat="43.79903" lon="4.83344">
        <ele>39.400001525879</ele>
        <time>2012-04-23T18:14:52</time>
      </trkpt>
      <trkpt lat="43.79913" lon="4.8334">
        <ele>39.400001525879</ele>
        <time>2012-04-23T18:14:53</time>
      </trkpt>
      <trkpt lat="43.79954" lon="4.83314">
        <ele>41.5</ele>
        <time>2012-04-23T18:14:57</time>
      </trkpt>
      <trkpt lat="43.79999" lon="4.83294">
        <ele>40.599998474121</ele>
        <time>2012-04-23T18:15:01</time>
      </trkpt>
      <trkpt lat="43.80031" lon="4.83284">
        <ele>38.300003051758</ele>
        <time>2012-04-23T18:15:04</time>
      </trkpt>
      <trkpt lat="43.80059" lon="4.83286">
        <ele>31.800003051758</ele>
        <time>2012-04-23T18:15:07</time>
      </trkpt>
      <trkpt lat="43.80088" lon="4.83286">
        <ele>33.099998474121</ele>
        <time>2012-04-23T18:15:10</time>
      </trkpt>
      <trkpt lat="43.80124" lon="4.83282">
        <ele>28.199996948242</ele>
        <time>2012-04-23T18:15:13</time>
      </trkpt>
      <trkpt lat="43.80136" lon="4.83281">
        <ele>27.900001525879</ele>
        <time>2012-04-23T18:15:14</time>
      </trkpt>
      <trkpt lat="43.80186" lon="4.83275">
        <ele>30.900001525879</ele>
        <time>2012-04-23T18:15:18</time>
      </trkpt>
      <trkpt lat="43.80234" lon="4.83276">
        <ele>32</ele>
        <time>2012-04-23T18:15:22</time>
      </trkpt>
      <trkpt lat="43.80268" lon="4.83278">
        <ele>30.699996948242</ele>
        <time>2012-04-23T18:15:25</time>
      </trkpt>
      <trkpt lat="43.80312" lon="4.83285">
        <ele>33.099998474121</ele>
        <time>2012-04-23T18:15:28</time>
      </trkpt>
      <trkpt lat="43.80357" lon="4.83293">
        <ele>33.900001525879</ele>
        <time>2012-04-23T18:15:31</time>
      </trkpt>
      <trkpt lat="43.80403" lon="4.83303">
        <ele>34.199996948242</ele>
        <time>2012-04-23T18:15:34</time>
      </trkpt>
      <trkpt lat="43.80448" lon="4.8331">
        <ele>33.199996948242</ele>
        <time>2012-04-23T18:15:37</time>
      </trkpt>
      <trkpt lat="43.80492" lon="4.8332">
        <ele>33.300003051758</ele>
        <time>2012-04-23T18:15:40</time>
      </trkpt>
      <trkpt lat="43.80539" lon="4.83325">
        <ele>32.400001525879</ele>
        <time>2012-04-23T18:15:43</time>
      </trkpt>
      <trkpt lat="43.80554" lon="4.83327">
        <ele>33</ele>
        <time>2012-04-23T18:15:44</time>
      </trkpt>
      <trkpt lat="43.80636" lon="4.83332">
        <ele>29.300003051758</ele>
        <time>2012-04-23T18:15:49</time>
      </trkpt>
      <trkpt lat="43.80682" lon="4.83338">
        <ele>29.199996948242</ele>
        <time>2012-04-23T18:15:52</time>
      </trkpt>
      <trkpt lat="43.80733" lon="4.83343">
        <ele>32.199996948242</ele>
        <time>2012-04-23T18:15:55</time>
      </trkpt>
      <trkpt lat="43.80784" lon="4.83348">
        <ele>31.400001525879</ele>
        <time>2012-04-23T18:15:58</time>
      </trkpt>
      <trkpt lat="43.80835" lon="4.83352">
        <ele>30.5</ele>
        <time>2012-04-23T18:16:01</time>
      </trkpt>
      <trkpt lat="43.80885" lon="4.83361">
        <ele>32.099998474121</ele>
        <time>2012-04-23T18:16:04</time>
      </trkpt>
      <trkpt lat="43.80938" lon="4.83363">
        <ele>32.300003051758</ele>
        <time>2012-04-23T18:16:07</time>
      </trkpt>
      <trkpt lat="43.8099" lon="4.83371">
        <ele>30.099998474121</ele>
        <time>2012-04-23T18:16:10</time>
      </trkpt>
      <trkpt lat="43.81025" lon="4.83375">
        <ele>28.699996948242</ele>
        <time>2012-04-23T18:16:12</time>
      </trkpt>
      <trkpt lat="43.81081" lon="4.83381">
        <ele>27.400001525879</ele>
        <time>2012-04-23T18:16:15</time>
      </trkpt>
      <trkpt lat="43.8116" lon="4.83399">
        <ele>27</ele>
        <time>2012-04-23T18:16:19</time>
      </trkpt>
      <trkpt lat="43.81216" lon="4.83426">
        <ele>27.900001525879</ele>
        <time>2012-04-23T18:16:22</time>
      </trkpt>
      <trkpt lat="43.81235" lon="4.83434">
        <ele>28.099998474121</ele>
        <time>2012-04-23T18:16:23</time>
      </trkpt>
      <trkpt lat="43.81308" lon="4.83469">
        <ele>26.800003051758</ele>
        <time>2012-04-23T18:16:27</time>
      </trkpt>
      <trkpt lat="43.81385" lon="4.83503">
        <ele>28.599998474121</ele>
        <time>2012-04-23T18:16:31</time>
      </trkpt>
      <trkpt lat="43.81404" lon="4.83505">
        <ele>28.199996948242</ele>
        <time>2012-04-23T18:16:32</time>
      </trkpt>
      <trkpt lat="43.81498" lon="4.83517">
        <ele>28.800003051758</ele>
        <time>2012-04-23T18:16:37</time>
      </trkpt>
      <trkpt lat="43.81555" lon="4.83522">
        <ele>27.800003051758</ele>
        <time>2012-04-23T18:16:40</time>
      </trkpt>
      <trkpt lat="43.8159" lon="4.83526">
        <ele>27.599998474121</ele>
        <time>2012-04-23T18:16:42</time>
      </trkpt>
      <trkpt lat="43.81678" lon="4.8355">
        <ele>31.800003051758</ele>
        <time>2012-04-23T18:16:47</time>
      </trkpt>
      <trkpt lat="43.8173" lon="4.83577">
        <ele>30.400001525879</ele>
        <time>2012-04-23T18:16:50</time>
      </trkpt>
      <trkpt lat="43.81781" lon="4.83606">
        <ele>29.300003051758</ele>
        <time>2012-04-23T18:16:53</time>
      </trkpt>
      <trkpt lat="43.81836" lon="4.83626">
        <ele>29.699996948242</ele>
        <time>2012-04-23T18:16:56</time>
      </trkpt>
      <trkpt lat="43.81895" lon="4.83626">
        <ele>28</ele>
        <time>2012-04-23T18:16:59</time>
      </trkpt>
      <trkpt lat="43.8195" lon="4.8363">
        <ele>29.099998474121</ele>
        <time>2012-04-23T18:17:02</time>
      </trkpt>
      <trkpt lat="43.82007" lon="4.83633">
        <ele>27.699996948242</ele>
        <time>2012-04-23T18:17:05</time>
      </trkpt>
      <trkpt lat="43.82063" lon="4.83636">
        <ele>29.099998474121</ele>
        <time>2012-04-23T18:17:08</time>
      </trkpt>
      <trkpt lat="43.82122" lon="4.83638">
        <ele>29.699996948242</ele>
        <time>2012-04-23T18:17:11</time>
      </trkpt>
      <trkpt lat="43.82141" lon="4.8364">
        <ele>29.300003051758</ele>
        <time>2012-04-23T18:17:12</time>
      </trkpt>
      <trkpt lat="43.82201" lon="4.8364">
        <ele>28.699996948242</ele>
        <time>2012-04-23T18:17:15</time>
      </trkpt>
      <trkpt lat="43.82276" lon="4.83633">
        <ele>26.199996948242</ele>
        <time>2012-04-23T18:17:19</time>
      </trkpt>
      <trkpt lat="43.82328" lon="4.83619">
        <ele>26.800003051758</ele>
        <time>2012-04-23T18:17:22</time>
      </trkpt>
      <trkpt lat="43.82398" lon="4.83598">
        <ele>24.900001525879</ele>
        <time>2012-04-23T18:17:26</time>
      </trkpt>
      <trkpt lat="43.82416" lon="4.83593">
        <ele>25.800003051758</ele>
        <time>2012-04-23T18:17:27</time>
      </trkpt>
      <trkpt lat="43.82469" lon="4.83581">
        <ele>22.099998474121</ele>
        <time>2012-04-23T18:17:30</time>
      </trkpt>
      <trkpt lat="43.82522" lon="4.8357">
        <ele>20.099998474121</ele>
        <time>2012-04-23T18:17:33</time>
      </trkpt>
      <trkpt lat="43.82589" lon="4.83572">
        <ele>21.300003051758</ele>
        <time>2012-04-23T18:17:37</time>
      </trkpt>
      <trkpt lat="43.82618" lon="4.83571">
        <ele>21.900001525879</ele>
        <time>2012-04-23T18:17:39</time>
      </trkpt>
      <trkpt lat="43.82696" lon="4.8358">
        <ele>20.5</ele>
        <time>2012-04-23T18:17:44</time>
      </trkpt>
      <trkpt lat="43.8274" lon="4.83584">
        <ele>21.400001525879</ele>
        <time>2012-04-23T18:17:47</time>
      </trkpt>
      <trkpt lat="43.8277" lon="4.83586">
        <ele>22</ele>
        <time>2012-04-23T18:17:49</time>
      </trkpt>
      <trkpt lat="43.82834" lon="4.83583">
        <ele>23.800003051758</ele>
        <time>2012-04-23T18:17:53</time>
      </trkpt>
      <trkpt lat="43.82867" lon="4.83584">
        <ele>23.300003051758</ele>
        <time>2012-04-23T18:17:55</time>
      </trkpt>
      <trkpt lat="43.82933" lon="4.83589">
        <ele>21.800003051758</ele>
        <time>2012-04-23T18:17:59</time>
      </trkpt>
      <trkpt lat="43.82966" lon="4.83591">
        <ele>22.699996948242</ele>
        <time>2012-04-23T18:18:01</time>
      </trkpt>
      <trkpt lat="43.83016" lon="4.836">
        <ele>24.599998474121</ele>
        <time>2012-04-23T18:18:04</time>
      </trkpt>
      <trkpt lat="43.83067" lon="4.8361">
        <ele>24.300003051758</ele>
        <time>2012-04-23T18:18:07</time>
      </trkpt>
      <trkpt lat="43.83138" lon="4.83618">
        <ele>21.099998474121</ele>
        <time>2012-04-23T18:18:11</time>
      </trkpt>
      <trkpt lat="43.83189" lon="4.83626">
        <ele>23.5</ele>
        <time>2012-04-23T18:18:14</time>
      </trkpt>
      <trkpt lat="43.8324" lon="4.8363">
        <ele>24.099998474121</ele>
        <time>2012-04-23T18:18:17</time>
      </trkpt>
      <trkpt lat="43.83294" lon="4.83636">
        <ele>25</ele>
        <time>2012-04-23T18:18:20</time>
      </trkpt>
      <trkpt lat="43.83341" lon="4.83643">
        <ele>24.900001525879</ele>
        <time>2012-04-23T18:18:23</time>
      </trkpt>
      <trkpt lat="43.83357" lon="4.83645">
        <ele>25.599998474121</ele>
        <time>2012-04-23T18:18:24</time>
      </trkpt>
      <trkpt lat="43.83435" lon="4.83653">
        <ele>24.199996948242</ele>
        <time>2012-04-23T18:18:29</time>
      </trkpt>
      <trkpt lat="43.83451" lon="4.83656">
        <ele>24.400001525879</ele>
        <time>2012-04-23T18:18:30</time>
      </trkpt>
      <trkpt lat="43.83493" lon="4.8366">
        <ele>24.199996948242</ele>
        <time>2012-04-23T18:18:33</time>
      </trkpt>
      <trkpt lat="43.83535" lon="4.8367">
        <ele>22.300003051758</ele>
        <time>2012-04-23T18:18:36</time>
      </trkpt>
      <trkpt lat="43.83577" lon="4.8368">
        <ele>21.300003051758</ele>
        <time>2012-04-23T18:18:40</time>
      </trkpt>
      <trkpt lat="43.83606" lon="4.83689">
        <ele>20.900001525879</ele>
        <time>2012-04-23T18:18:44</time>
      </trkpt>
      <trkpt lat="43.83622" lon="4.837">
        <ele>20.199996948242</ele>
        <time>2012-04-23T18:18:47</time>
      </trkpt>
      <trkpt lat="43.83639" lon="4.83707">
        <ele>22.900001525879</ele>
        <time>2012-04-23T18:18:50</time>
      </trkpt>
      <trkpt lat="43.83645" lon="4.83704">
        <ele>22.199996948242</ele>
        <time>2012-04-23T18:18:51</time>
      </trkpt>
      <trkpt lat="43.8367" lon="4.83677">
        <ele>23.599998474121</ele>
        <time>2012-04-23T18:18:56</time>
      </trkpt>
      <trkpt lat="43.83679" lon="4.83672">
        <ele>23.300003051758</ele>
        <time>2012-04-23T18:18:57</time>
      </trkpt>
      <trkpt lat="43.83728" lon="4.83649">
        <ele>22.900001525879</ele>
        <time>2012-04-23T18:19:02</time>
      </trkpt>
      <trkpt lat="43.83764" lon="4.83633">
        <ele>21.699996948242</ele>
        <time>2012-04-23T18:19:05</time>
      </trkpt>
      <trkpt lat="43.838" lon="4.83616">
        <ele>20.599998474121</ele>
        <time>2012-04-23T18:19:08</time>
      </trkpt>
      <trkpt lat="43.83837" lon="4.83609">
        <ele>22</ele>
        <time>2012-04-23T18:19:11</time>
      </trkpt>
      <trkpt lat="43.83868" lon="4.83609">
        <ele>17.800003051758</ele>
        <time>2012-04-23T18:19:14</time>
      </trkpt>
      <trkpt lat="43.8389" lon="4.83613">
        <ele>16.5</ele>
        <time>2012-04-23T18:19:16</time>
      </trkpt>
      <trkpt lat="43.83912" lon="4.83619">
        <ele>16</ele>
        <time>2012-04-23T18:19:18</time>
      </trkpt>
      <trkpt lat="43.83957" lon="4.83637">
        <ele>18.300003051758</ele>
        <time>2012-04-23T18:19:22</time>
      </trkpt>
      <trkpt lat="43.83978" lon="4.8365">
        <ele>19</ele>
        <time>2012-04-23T18:19:24</time>
      </trkpt>
      <trkpt lat="43.84018" lon="4.83677">
        <ele>20</ele>
        <time>2012-04-23T18:19:28</time>
      </trkpt>
      <trkpt lat="43.84037" lon="4.83691">
        <ele>19.5</ele>
        <time>2012-04-23T18:19:30</time>
      </trkpt>
      <trkpt lat="43.84063" lon="4.8371">
        <ele>17.099998474121</ele>
        <time>2012-04-23T18:19:35</time>
      </trkpt>
      <trkpt lat="43.84075" lon="4.83734">
        <ele>18.5</ele>
        <time>2012-04-23T18:19:45</time>
      </trkpt>
      <trkpt lat="43.84095" lon="4.83735">
        <ele>14.900001525879</ele>
        <time>2012-04-23T18:19:48</time>
      </trkpt>
      <trkpt lat="43.84124" lon="4.83753">
        <ele>17.400001525879</ele>
        <time>2012-04-23T18:19:51</time>
      </trkpt>
      <trkpt lat="43.84157" lon="4.83775">
        <ele>17</ele>
        <time>2012-04-23T18:19:54</time>
      </trkpt>
      <trkpt lat="43.84198" lon="4.83801">
        <ele>16.800003051758</ele>
        <time>2012-04-23T18:19:57</time>
      </trkpt>
      <trkpt lat="43.84239" lon="4.83828">
        <ele>20.800003051758</ele>
        <time>2012-04-23T18:20:00</time>
      </trkpt>
      <trkpt lat="43.84267" lon="4.83848">
        <ele>21.199996948242</ele>
        <time>2012-04-23T18:20:02</time>
      </trkpt>
      <trkpt lat="43.8431" lon="4.83874">
        <ele>17.300003051758</ele>
        <time>2012-04-23T18:20:05</time>
      </trkpt>
      <trkpt lat="43.84368" lon="4.83911">
        <ele>14.799999237061</ele>
        <time>2012-04-23T18:20:09</time>
      </trkpt>
      <trkpt lat="43.84414" lon="4.8394">
        <ele>15.599998474121</ele>
        <time>2012-04-23T18:20:12</time>
      </trkpt>
      <trkpt lat="43.84458" lon="4.83966">
        <ele>14.900001525879</ele>
        <time>2012-04-23T18:20:15</time>
      </trkpt>
      <trkpt lat="43.84502" lon="4.8399">
        <ele>11.5</ele>
        <time>2012-04-23T18:20:18</time>
      </trkpt>
      <trkpt lat="43.84535" lon="4.84005">
        <ele>12</ele>
        <time>2012-04-23T18:20:20</time>
      </trkpt>
      <trkpt lat="43.84602" lon="4.84034">
        <ele>12.5</ele>
        <time>2012-04-23T18:20:24</time>
      </trkpt>
      <trkpt lat="43.84634" lon="4.8405">
        <ele>12.5</ele>
        <time>2012-04-23T18:20:26</time>
      </trkpt>
      <trkpt lat="43.84701" lon="4.8408">
        <ele>16.099998474121</ele>
        <time>2012-04-23T18:20:30</time>
      </trkpt>
      <trkpt lat="43.84752" lon="4.841">
        <ele>16.099998474121</ele>
        <time>2012-04-23T18:20:33</time>
      </trkpt>
      <trkpt lat="43.84786" lon="4.84111">
        <ele>15.699996948242</ele>
        <time>2012-04-23T18:20:35</time>
      </trkpt>
      <trkpt lat="43.84857" lon="4.84102">
        <ele>19.199996948242</ele>
        <time>2012-04-23T18:20:39</time>
      </trkpt>
      <trkpt lat="43.84912" lon="4.84098">
        <ele>18.699996948242</ele>
        <time>2012-04-23T18:20:42</time>
      </trkpt>
      <trkpt lat="43.8495" lon="4.84099">
        <ele>17.900001525879</ele>
        <time>2012-04-23T18:20:44</time>
      </trkpt>
      <trkpt lat="43.85007" lon="4.84111">
        <ele>17.400001525879</ele>
        <time>2012-04-23T18:20:47</time>
      </trkpt>
      <trkpt lat="43.85078" lon="4.84118">
        <ele>14</ele>
        <time>2012-04-23T18:20:51</time>
      </trkpt>
      <trkpt lat="43.85115" lon="4.84108">
        <ele>14.700000762939</ele>
        <time>2012-04-23T18:20:53</time>
      </trkpt>
      <trkpt lat="43.85165" lon="4.84075">
        <ele>15.800003051758</ele>
        <time>2012-04-23T18:20:56</time>
      </trkpt>
      <trkpt lat="43.85228" lon="4.84024">
        <ele>16.900001525879</ele>
        <time>2012-04-23T18:21:00</time>
      </trkpt>
      <trkpt lat="43.85243" lon="4.84011">
        <ele>17.300003051758</ele>
        <time>2012-04-23T18:21:01</time>
      </trkpt>
      <trkpt lat="43.85337" lon="4.83986">
        <ele>18.199996948242</ele>
        <time>2012-04-23T18:21:06</time>
      </trkpt>
      <trkpt lat="43.85392" lon="4.84004">
        <ele>19.199996948242</ele>
        <time>2012-04-23T18:21:09</time>
      </trkpt>
      <trkpt lat="43.85443" lon="4.84035">
        <ele>20.599998474121</ele>
        <time>2012-04-23T18:21:12</time>
      </trkpt>
      <trkpt lat="43.85495" lon="4.84065">
        <ele>22.099998474121</ele>
        <time>2012-04-23T18:21:15</time>
      </trkpt>
      <trkpt lat="43.85548" lon="4.84095">
        <ele>22.199996948242</ele>
        <time>2012-04-23T18:21:18</time>
      </trkpt>
      <trkpt lat="43.85601" lon="4.84128">
        <ele>21.300003051758</ele>
        <time>2012-04-23T18:21:21</time>
      </trkpt>
      <trkpt lat="43.85657" lon="4.84162">
        <ele>18.900001525879</ele>
        <time>2012-04-23T18:21:24</time>
      </trkpt>
      <trkpt lat="43.85675" lon="4.84171">
        <ele>19.599998474121</ele>
        <time>2012-04-23T18:21:25</time>
      </trkpt>
      <trkpt lat="43.85729" lon="4.84195">
        <ele>15</ele>
        <time>2012-04-23T18:21:28</time>
      </trkpt>
      <trkpt lat="43.85825" lon="4.84211">
        <ele>15.199996948242</ele>
        <time>2012-04-23T18:21:33</time>
      </trkpt>
      <trkpt lat="43.85845" lon="4.84212">
        <ele>16.699996948242</ele>
        <time>2012-04-23T18:21:34</time>
      </trkpt>
      <trkpt lat="43.85897" lon="4.8422">
        <ele>18.900001525879</ele>
        <time>2012-04-23T18:21:37</time>
      </trkpt>
      <trkpt lat="43.85965" lon="4.84187">
        <ele>20.5</ele>
        <time>2012-04-23T18:21:41</time>
      </trkpt>
      <trkpt lat="43.86025" lon="4.84131">
        <ele>18.099998474121</ele>
        <time>2012-04-23T18:21:45</time>
      </trkpt>
      <trkpt lat="43.86049" lon="4.84104">
        <ele>18.199996948242</ele>
        <time>2012-04-23T18:21:47</time>
      </trkpt>
      <trkpt lat="43.86094" lon="4.84063">
        <ele>19.599998474121</ele>
        <time>2012-04-23T18:21:51</time>
      </trkpt>
      <trkpt lat="43.86125" lon="4.84046">
        <ele>19.400001525879</ele>
        <time>2012-04-23T18:21:53</time>
      </trkpt>
      <trkpt lat="43.86173" lon="4.84003">
        <ele>20.599998474121</ele>
        <time>2012-04-23T18:21:57</time>
      </trkpt>
      <trkpt lat="43.86207" lon="4.83965">
        <ele>21.300003051758</ele>
        <time>2012-04-23T18:22:00</time>
      </trkpt>
      <trkpt lat="43.8623" lon="4.83942">
        <ele>23.300003051758</ele>
        <time>2012-04-23T18:22:02</time>
      </trkpt>
      <trkpt lat="43.86267" lon="4.83911">
        <ele>22.900001525879</ele>
        <time>2012-04-23T18:22:05</time>
      </trkpt>
      <trkpt lat="43.86292" lon="4.83888">
        <ele>22.800003051758</ele>
        <time>2012-04-23T18:22:07</time>
      </trkpt>
      <trkpt lat="43.8635" lon="4.8383">
        <ele>24.800003051758</ele>
        <time>2012-04-23T18:22:12</time>
      </trkpt>
      <trkpt lat="43.86381" lon="4.83796">
        <ele>24.599998474121</ele>
        <time>2012-04-23T18:22:15</time>
      </trkpt>
      <trkpt lat="43.86402" lon="4.83776">
        <ele>25.5</ele>
        <time>2012-04-23T18:22:17</time>
      </trkpt>
      <trkpt lat="43.86463" lon="4.83737">
        <ele>23.599998474121</ele>
        <time>2012-04-23T18:22:22</time>
      </trkpt>
      <trkpt lat="43.86499" lon="4.83708">
        <ele>24.400001525879</ele>
        <time>2012-04-23T18:22:25</time>
      </trkpt>
      <trkpt lat="43.86536" lon="4.83682">
        <ele>25.300003051758</ele>
        <time>2012-04-23T18:22:28</time>
      </trkpt>
      <trkpt lat="43.8657" lon="4.83662">
        <ele>27.300003051758</ele>
        <time>2012-04-23T18:22:31</time>
      </trkpt>
      <trkpt lat="43.86609" lon="4.83643">
        <ele>26.900001525879</ele>
        <time>2012-04-23T18:22:34</time>
      </trkpt>
      <trkpt lat="43.86622" lon="4.83639">
        <ele>27.300003051758</ele>
        <time>2012-04-23T18:22:35</time>
      </trkpt>
      <trkpt lat="43.86674" lon="4.83627">
        <ele>29.099998474121</ele>
        <time>2012-04-23T18:22:39</time>
      </trkpt>
      <trkpt lat="43.86727" lon="4.83627">
        <ele>30.400001525879</ele>
        <time>2012-04-23T18:22:43</time>
      </trkpt>
      <trkpt lat="43.86757" lon="4.83623">
        <ele>30.199996948242</ele>
        <time>2012-04-23T18:22:46</time>
      </trkpt>
      <trkpt lat="43.86777" lon="4.83634">
        <ele>31.699996948242</ele>
        <time>2012-04-23T18:22:49</time>
      </trkpt>
      <trkpt lat="43.868" lon="4.83646">
        <ele>31.900001525879</ele>
        <time>2012-04-23T18:22:52</time>
      </trkpt>
      <trkpt lat="43.86807" lon="4.83647">
        <ele>32.099998474121</ele>
        <time>2012-04-23T18:22:53</time>
      </trkpt>
      <trkpt lat="43.86851" lon="4.8363">
        <ele>30.300003051758</ele>
        <time>2012-04-23T18:22:58</time>
      </trkpt>
      <trkpt lat="43.86863" lon="4.8363">
        <ele>28.900001525879</ele>
        <time>2012-04-23T18:22:59</time>
      </trkpt>
      <trkpt lat="43.86914" lon="4.83623">
        <ele>29.300003051758</ele>
        <time>2012-04-23T18:23:03</time>
      </trkpt>
      <trkpt lat="43.86946" lon="4.83616">
        <ele>29.699996948242</ele>
        <time>2012-04-23T18:23:05</time>
      </trkpt>
      <trkpt lat="43.87006" lon="4.83602">
        <ele>30.900001525879</ele>
        <time>2012-04-23T18:23:09</time>
      </trkpt>
      <trkpt lat="43.87076" lon="4.83582">
        <ele>31.199996948242</ele>
        <time>2012-04-23T18:23:13</time>
      </trkpt>
      <trkpt lat="43.87101" lon="4.83576">
        <ele>30.900001525879</ele>
        <time>2012-04-23T18:23:14</time>
      </trkpt>
      <trkpt lat="43.87198" lon="4.83554">
        <ele>26.800003051758</ele>
        <time>2012-04-23T18:23:19</time>
      </trkpt>
      <trkpt lat="43.87257" lon="4.83539">
        <ele>28.800003051758</ele>
        <time>2012-04-23T18:23:22</time>
      </trkpt>
      <trkpt lat="43.87277" lon="4.83534">
        <ele>28.800003051758</ele>
        <time>2012-04-23T18:23:23</time>
      </trkpt>
      <trkpt lat="43.87336" lon="4.8352">
        <ele>29.699996948242</ele>
        <time>2012-04-23T18:23:26</time>
      </trkpt>
      <trkpt lat="43.87394" lon="4.83507">
        <ele>30.099998474121</ele>
        <time>2012-04-23T18:23:29</time>
      </trkpt>
      <trkpt lat="43.8748" lon="4.83495">
        <ele>28.300003051758</ele>
        <time>2012-04-23T18:23:34</time>
      </trkpt>
      <trkpt lat="43.87523" lon="4.83483">
        <ele>27.800003051758</ele>
        <time>2012-04-23T18:23:36</time>
      </trkpt>
      <trkpt lat="43.87562" lon="4.83475">
        <ele>28</ele>
        <time>2012-04-23T18:23:38</time>
      </trkpt>
      <trkpt lat="43.87638" lon="4.83456">
        <ele>29.199996948242</ele>
        <time>2012-04-23T18:23:42</time>
      </trkpt>
      <trkpt lat="43.87699" lon="4.83444">
        <ele>28.400001525879</ele>
        <time>2012-04-23T18:23:46</time>
      </trkpt>
      <trkpt lat="43.87704" lon="4.83444">
        <ele>28.900001525879</ele>
        <time>2012-04-23T18:23:47</time>
      </trkpt>
      <trkpt lat="43.87732" lon="4.83443">
        <ele>28.400001525879</ele>
        <time>2012-04-23T18:23:50</time>
      </trkpt>
      <trkpt lat="43.87755" lon="4.83437">
        <ele>27.599998474121</ele>
        <time>2012-04-23T18:23:53</time>
      </trkpt>
      <trkpt lat="43.87749" lon="4.83389">
        <ele>25</ele>
        <time>2012-04-23T18:23:58</time>
      </trkpt>
      <trkpt lat="43.87733" lon="4.8335">
        <ele>28.199996948242</ele>
        <time>2012-04-23T18:24:01</time>
      </trkpt>
      <trkpt lat="43.87728" lon="4.83336">
        <ele>28</ele>
        <time>2012-04-23T18:24:02</time>
      </trkpt>
      <trkpt lat="43.877" lon="4.83249">
        <ele>27.5</ele>
        <time>2012-04-23T18:24:07</time>
      </trkpt>
      <trkpt lat="43.87681" lon="4.83191">
        <ele>29.099998474121</ele>
        <time>2012-04-23T18:24:10</time>
      </trkpt>
      <trkpt lat="43.87669" lon="4.83152">
        <ele>30.300003051758</ele>
        <time>2012-04-23T18:24:12</time>
      </trkpt>
      <trkpt lat="43.87648" lon="4.83093">
        <ele>30.099998474121</ele>
        <time>2012-04-23T18:24:15</time>
      </trkpt>
      <trkpt lat="43.87634" lon="4.83053">
        <ele>28.800003051758</ele>
        <time>2012-04-23T18:24:17</time>
      </trkpt>
      <trkpt lat="43.87609" lon="4.82973">
        <ele>29.900001525879</ele>
        <time>2012-04-23T18:24:21</time>
      </trkpt>
      <trkpt lat="43.87597" lon="4.82937">
        <ele>28.900001525879</ele>
        <time>2012-04-23T18:24:23</time>
      </trkpt>
      <trkpt lat="43.87577" lon="4.8285">
        <ele>27.800003051758</ele>
        <time>2012-04-23T18:24:28</time>
      </trkpt>
      <trkpt lat="43.87572" lon="4.82816">
        <ele>28.599998474121</ele>
        <time>2012-04-23T18:24:31</time>
      </trkpt>
      <trkpt lat="43.87578" lon="4.828">
        <ele>28.5</ele>
        <time>2012-04-23T18:24:34</time>
      </trkpt>
      <trkpt lat="43.87598" lon="4.82796">
        <ele>28.300003051758</ele>
        <time>2012-04-23T18:24:37</time>
      </trkpt>
      <trkpt lat="43.87606" lon="4.82794">
        <ele>28</ele>
        <time>2012-04-23T18:24:38</time>
      </trkpt>
      <trkpt lat="43.8764" lon="4.82778">
        <ele>28.199996948242</ele>
        <time>2012-04-23T18:24:43</time>
      </trkpt>
      <trkpt lat="43.87648" lon="4.82775">
        <ele>28.5</ele>
        <time>2012-04-23T18:24:44</time>
      </trkpt>
      <trkpt lat="43.87681" lon="4.82761">
        <ele>28.400001525879</ele>
        <time>2012-04-23T18:24:48</time>
      </trkpt>
      <trkpt lat="43.87716" lon="4.82748">
        <ele>28.400001525879</ele>
        <time>2012-04-23T18:24:52</time>
      </trkpt>
      <trkpt lat="43.87739" lon="4.82737">
        <ele>29.699996948242</ele>
        <time>2012-04-23T18:24:55</time>
      </trkpt>
      <trkpt lat="43.87758" lon="4.82728">
        <ele>30.099998474121</ele>
        <time>2012-04-23T18:24:57</time>
      </trkpt>
      <trkpt lat="43.87773" lon="4.82722">
        <ele>31.099998474121</ele>
        <time>2012-04-23T18:25:00</time>
      </trkpt>
      <trkpt lat="43.87793" lon="4.82708">
        <ele>30.300003051758</ele>
        <time>2012-04-23T18:25:04</time>
      </trkpt>
      <trkpt lat="43.87804" lon="4.82693">
        <ele>30.800003051758</ele>
        <time>2012-04-23T18:25:07</time>
      </trkpt>
      <trkpt lat="43.87816" lon="4.82684">
        <ele>27.099998474121</ele>
        <time>2012-04-23T18:25:10</time>
      </trkpt>
      <trkpt lat="43.87831" lon="4.8268">
        <ele>27.199996948242</ele>
        <time>2012-04-23T18:25:13</time>
      </trkpt>
      <trkpt lat="43.87838" lon="4.82673">
        <ele>29</ele>
        <time>2012-04-23T18:25:17</time>
      </trkpt>
      <trkpt lat="43.8784" lon="4.82666">
        <ele>30.800003051758</ele>
        <time>2012-04-23T18:25:20</time>
      </trkpt>
      <trkpt lat="43.8784" lon="4.82658">
        <ele>30.400001525879</ele>
        <time>2012-04-23T18:25:22</time>
      </trkpt>
      <trkpt lat="43.87837" lon="4.82639">
        <ele>28.400001525879</ele>
        <time>2012-04-23T18:25:26</time>
      </trkpt>
      <trkpt lat="43.87838" lon="4.82618">
        <ele>30.599998474121</ele>
        <time>2012-04-23T18:25:29</time>
      </trkpt>
      <trkpt lat="43.87837" lon="4.82601">
        <ele>29.199996948242</ele>
        <time>2012-04-23T18:25:32</time>
      </trkpt>
      <trkpt lat="43.87839" lon="4.82592">
        <ele>29.800003051758</ele>
        <time>2012-04-23T18:25:34</time>
      </trkpt>
      <trkpt lat="43.87843" lon="4.82586">
        <ele>29</ele>
        <time>2012-04-23T18:25:36</time>
      </trkpt>
      <trkpt lat="43.87857" lon="4.82579">
        <ele>27.800003051758</ele>
        <time>2012-04-23T18:25:41</time>
      </trkpt>
      <trkpt lat="43.87862" lon="4.82579">
        <ele>28.300003051758</ele>
        <time>2012-04-23T18:25:44</time>
      </trkpt>
      <trkpt lat="43.87835" lon="4.82595">
        <ele>12.900001525879</ele>
        <time>2012-04-23T20:37:40</time>
      </trkpt>
      <trkpt lat="43.87834" lon="4.82618">
        <ele>14.599998474121</ele>
        <time>2012-04-23T20:37:42</time>
      </trkpt>
      <trkpt lat="43.87835" lon="4.82632">
        <ele>14.900001525879</ele>
        <time>2012-04-23T20:37:44</time>
      </trkpt>
      <trkpt lat="43.87836" lon="4.82646">
        <ele>14.799999237061</ele>
        <time>2012-04-23T20:37:47</time>
      </trkpt>
      <trkpt lat="43.87839" lon="4.82669">
        <ele>15.800003051758</ele>
        <time>2012-04-23T20:37:50</time>
      </trkpt>
      <trkpt lat="43.8784" lon="4.82679">
        <ele>17.699996948242</ele>
        <time>2012-04-23T20:37:54</time>
      </trkpt>
      <trkpt lat="43.87844" lon="4.82678">
        <ele>13.900001525879</ele>
        <time>2012-04-23T20:37:57</time>
      </trkpt>
      <trkpt lat="43.87846" lon="4.82678">
        <ele>12.400001525879</ele>
        <time>2012-04-23T20:37:58</time>
      </trkpt>
      <trkpt lat="43.87878" lon="4.82669">
        <ele>13.599998474121</ele>
        <time>2012-04-23T20:38:02</time>
      </trkpt>
      <trkpt lat="43.87919" lon="4.8266">
        <ele>13.400001525879</ele>
        <time>2012-04-23T20:38:06</time>
      </trkpt>
      <trkpt lat="43.87939" lon="4.8266">
        <ele>13.299999237061</ele>
        <time>2012-04-23T20:38:08</time>
      </trkpt>
      <trkpt lat="43.87946" lon="4.82659">
        <ele>13.900001525879</ele>
        <time>2012-04-23T20:38:12</time>
      </trkpt>
      <trkpt lat="43.8795" lon="4.82667">
        <ele>15.300003051758</ele>
        <time>2012-04-23T20:38:14</time>
      </trkpt>
      <trkpt lat="43.87962" lon="4.82703">
        <ele>15.400001525879</ele>
        <time>2012-04-23T20:38:18</time>
      </trkpt>
      <trkpt lat="43.87965" lon="4.82718">
        <ele>14.900001525879</ele>
        <time>2012-04-23T20:38:19</time>
      </trkpt>
      <trkpt lat="43.87988" lon="4.828">
        <ele>14.700000762939</ele>
        <time>2012-04-23T20:38:24</time>
      </trkpt>
      <trkpt lat="43.88002" lon="4.82852">
        <ele>17.5</ele>
        <time>2012-04-23T20:38:27</time>
      </trkpt>
      <trkpt lat="43.88007" lon="4.82869">
        <ele>18.099998474121</ele>
        <time>2012-04-23T20:38:29</time>
      </trkpt>
      <trkpt lat="43.88024" lon="4.82939">
        <ele>16.300003051758</ele>
        <time>2012-04-23T20:38:32</time>
      </trkpt>
      <trkpt lat="43.88035" lon="4.8299">
        <ele>15.300003051758</ele>
        <time>2012-04-23T20:38:35</time>
      </trkpt>
      <trkpt lat="43.8805" lon="4.83061">
        <ele>14.599998474121</ele>
        <time>2012-04-23T20:38:39</time>
      </trkpt>
      <trkpt lat="43.88061" lon="4.83114">
        <ele>14</ele>
        <time>2012-04-23T20:38:43</time>
      </trkpt>
      <trkpt lat="43.88064" lon="4.83133">
        <ele>14.900001525879</ele>
        <time>2012-04-23T20:38:43</time>
      </trkpt>
      <trkpt lat="43.88081" lon="4.83192">
        <ele>14.5</ele>
        <time>2012-04-23T20:38:48</time>
      </trkpt>
      <trkpt lat="43.88084" lon="4.83202">
        <ele>14.200000762939</ele>
        <time>2012-04-23T20:38:52</time>
      </trkpt>
      <trkpt lat="43.88123" lon="4.83184">
        <ele>14.299999237061</ele>
        <time>2012-04-23T20:39:01</time>
      </trkpt>
      <trkpt lat="43.88144" lon="4.83171">
        <ele>13.900001525879</ele>
        <time>2012-04-23T20:39:02</time>
      </trkpt>
      <trkpt lat="43.88202" lon="4.83139">
        <ele>11.599998474121</ele>
        <time>2012-04-23T20:39:06</time>
      </trkpt>
      <trkpt lat="43.88265" lon="4.83106">
        <ele>14.5</ele>
        <time>2012-04-23T20:39:10</time>
      </trkpt>
      <trkpt lat="43.88308" lon="4.83074">
        <ele>16.5</ele>
        <time>2012-04-23T20:39:13</time>
      </trkpt>
      <trkpt lat="43.8835" lon="4.83038">
        <ele>17</ele>
        <time>2012-04-23T20:39:17</time>
      </trkpt>
      <trkpt lat="43.88394" lon="4.83002">
        <ele>14.099998474121</ele>
        <time>2012-04-23T20:39:19</time>
      </trkpt>
      <trkpt lat="43.88439" lon="4.82969">
        <ele>15</ele>
        <time>2012-04-23T20:39:22</time>
      </trkpt>
      <trkpt lat="43.88453" lon="4.82958">
        <ele>15.099998474121</ele>
        <time>2012-04-23T20:39:23</time>
      </trkpt>
      <trkpt lat="43.88527" lon="4.82901">
        <ele>14.299999237061</ele>
        <time>2012-04-23T20:39:28</time>
      </trkpt>
      <trkpt lat="43.88556" lon="4.82874">
        <ele>14.700000762939</ele>
        <time>2012-04-23T20:39:30</time>
      </trkpt>
      <trkpt lat="43.88606" lon="4.82842">
        <ele>16</ele>
        <time>2012-04-23T20:39:33</time>
      </trkpt>
      <trkpt lat="43.8867" lon="4.82805">
        <ele>16.300003051758</ele>
        <time>2012-04-23T20:39:37</time>
      </trkpt>
      <trkpt lat="43.88717" lon="4.82778">
        <ele>17.300003051758</ele>
        <time>2012-04-23T20:39:40</time>
      </trkpt>
      <trkpt lat="43.88746" lon="4.82755">
        <ele>17.599998474121</ele>
        <time>2012-04-23T20:39:42</time>
      </trkpt>
      <trkpt lat="43.88805" lon="4.82701">
        <ele>18.5</ele>
        <time>2012-04-23T20:39:46</time>
      </trkpt>
      <trkpt lat="43.88832" lon="4.82668">
        <ele>19.900001525879</ele>
        <time>2012-04-23T20:39:48</time>
      </trkpt>
      <trkpt lat="43.88889" lon="4.82603">
        <ele>18.300003051758</ele>
        <time>2012-04-23T20:39:53</time>
      </trkpt>
      <trkpt lat="43.88932" lon="4.82557">
        <ele>18.400001525879</ele>
        <time>2012-04-23T20:39:55</time>
      </trkpt>
      <trkpt lat="43.88972" lon="4.82514">
        <ele>18.599998474121</ele>
        <time>2012-04-23T20:39:58</time>
      </trkpt>
      <trkpt lat="43.89008" lon="4.82481">
        <ele>18</ele>
        <time>2012-04-23T20:40:01</time>
      </trkpt>
      <trkpt lat="43.89025" lon="4.82466">
        <ele>17.199996948242</ele>
        <time>2012-04-23T20:40:03</time>
      </trkpt>
      <trkpt lat="43.89059" lon="4.82456">
        <ele>16.199996948242</ele>
        <time>2012-04-23T20:40:07</time>
      </trkpt>
      <trkpt lat="43.8908" lon="4.82435">
        <ele>15.400001525879</ele>
        <time>2012-04-23T20:40:11</time>
      </trkpt>
      <trkpt lat="43.89099" lon="4.824">
        <ele>14.5</ele>
        <time>2012-04-23T20:40:13</time>
      </trkpt>
      <trkpt lat="43.8913" lon="4.82362">
        <ele>17.099998474121</ele>
        <time>2012-04-23T20:40:16</time>
      </trkpt>
      <trkpt lat="43.89171" lon="4.82337">
        <ele>16.900001525879</ele>
        <time>2012-04-23T20:40:19</time>
      </trkpt>
      <trkpt lat="43.89215" lon="4.82321">
        <ele>15.800003051758</ele>
        <time>2012-04-23T20:40:22</time>
      </trkpt>
      <trkpt lat="43.89257" lon="4.82305">
        <ele>15.400001525879</ele>
        <time>2012-04-23T20:40:25</time>
      </trkpt>
      <trkpt lat="43.89283" lon="4.82294">
        <ele>16.800003051758</ele>
        <time>2012-04-23T20:40:27</time>
      </trkpt>
      <trkpt lat="43.89319" lon="4.82274">
        <ele>21.900001525879</ele>
        <time>2012-04-23T20:40:30</time>
      </trkpt>
      <trkpt lat="43.89356" lon="4.82253">
        <ele>23.699996948242</ele>
        <time>2012-04-23T20:40:34</time>
      </trkpt>
      <trkpt lat="43.89372" lon="4.82246">
        <ele>25</ele>
        <time>2012-04-23T20:40:37</time>
      </trkpt>
      <trkpt lat="43.89376" lon="4.82247">
        <ele>27.099998474121</ele>
        <time>2012-04-23T20:40:40</time>
      </trkpt>
      <trkpt lat="43.89383" lon="4.82248">
        <ele>26.599998474121</ele>
        <time>2012-04-23T20:40:43</time>
      </trkpt>
      <trkpt lat="43.89389" lon="4.82248">
        <ele>29.599998474121</ele>
        <time>2012-04-23T20:40:46</time>
      </trkpt>
      <trkpt lat="43.89395" lon="4.8225">
        <ele>27.099998474121</ele>
        <time>2012-04-23T20:40:48</time>
      </trkpt>
      <trkpt lat="43.89416" lon="4.82259">
        <ele>24</ele>
        <time>2012-04-23T20:40:52</time>
      </trkpt>
      <trkpt lat="43.8944" lon="4.82246">
        <ele>24.099998474121</ele>
        <time>2012-04-23T20:40:55</time>
      </trkpt>
      <trkpt lat="43.89437" lon="4.82216">
        <ele>22.800003051758</ele>
        <time>2012-04-23T20:40:57</time>
      </trkpt>
      <trkpt lat="43.89453" lon="4.82153">
        <ele>19.900001525879</ele>
        <time>2012-04-23T20:41:01</time>
      </trkpt>
      <trkpt lat="43.89469" lon="4.82094">
        <ele>19</ele>
        <time>2012-04-23T20:41:04</time>
      </trkpt>
      <trkpt lat="43.89483" lon="4.82055">
        <ele>18.800003051758</ele>
        <time>2012-04-23T20:41:06</time>
      </trkpt>
      <trkpt lat="43.89518" lon="4.81977">
        <ele>20.300003051758</ele>
        <time>2012-04-23T20:41:11</time>
      </trkpt>
      <trkpt lat="43.89539" lon="4.81941">
        <ele>20.5</ele>
        <time>2012-04-23T20:41:12</time>
      </trkpt>
      <trkpt lat="43.89591" lon="4.81883">
        <ele>19.900001525879</ele>
        <time>2012-04-23T20:41:16</time>
      </trkpt>
      <trkpt lat="43.89621" lon="4.81859">
        <ele>18.300003051758</ele>
        <time>2012-04-23T20:41:18</time>
      </trkpt>
      <trkpt lat="43.89689" lon="4.81827">
        <ele>18.099998474121</ele>
        <time>2012-04-23T20:41:22</time>
      </trkpt>
      <trkpt lat="43.89725" lon="4.81818">
        <ele>17.599998474121</ele>
        <time>2012-04-23T20:41:24</time>
      </trkpt>
      <trkpt lat="43.89759" lon="4.81812">
        <ele>17.800003051758</ele>
        <time>2012-04-23T20:41:27</time>
      </trkpt>
      <trkpt lat="43.89835" lon="4.81794">
        <ele>19.599998474121</ele>
        <time>2012-04-23T20:41:31</time>
      </trkpt>
      <trkpt lat="43.89872" lon="4.81786">
        <ele>19.099998474121</ele>
        <time>2012-04-23T20:41:34</time>
      </trkpt>
      <trkpt lat="43.89889" lon="4.8179">
        <ele>20.699996948242</ele>
        <time>2012-04-23T20:41:36</time>
      </trkpt>
      <trkpt lat="43.89925" lon="4.81778">
        <ele>19</ele>
        <time>2012-04-23T20:41:40</time>
      </trkpt>
      <trkpt lat="43.89957" lon="4.81758">
        <ele>17.599998474121</ele>
        <time>2012-04-23T20:41:43</time>
      </trkpt>
      <trkpt lat="43.90002" lon="4.81741">
        <ele>18.599998474121</ele>
        <time>2012-04-23T20:41:46</time>
      </trkpt>
      <trkpt lat="43.90055" lon="4.81728">
        <ele>13.599998474121</ele>
        <time>2012-04-23T20:41:49</time>
      </trkpt>
      <trkpt lat="43.90109" lon="4.81716">
        <ele>12.5</ele>
        <time>2012-04-23T20:41:53</time>
      </trkpt>
      <trkpt lat="43.90127" lon="4.81712">
        <ele>12.200000762939</ele>
        <time>2012-04-23T20:41:53</time>
      </trkpt>
      <trkpt lat="43.90217" lon="4.81685">
        <ele>13.900001525879</ele>
        <time>2012-04-23T20:41:58</time>
      </trkpt>
      <trkpt lat="43.90271" lon="4.8166">
        <ele>13.599998474121</ele>
        <time>2012-04-23T20:42:01</time>
      </trkpt>
      <trkpt lat="43.90323" lon="4.81625">
        <ele>14.700000762939</ele>
        <time>2012-04-23T20:42:04</time>
      </trkpt>
      <trkpt lat="43.90374" lon="4.81592">
        <ele>15.599998474121</ele>
        <time>2012-04-23T20:42:08</time>
      </trkpt>
      <trkpt lat="43.90425" lon="4.81557">
        <ele>16.199996948242</ele>
        <time>2012-04-23T20:42:10</time>
      </trkpt>
      <trkpt lat="43.90477" lon="4.81527">
        <ele>15.400001525879</ele>
        <time>2012-04-23T20:42:13</time>
      </trkpt>
      <trkpt lat="43.90511" lon="4.81504">
        <ele>15.099998474121</ele>
        <time>2012-04-23T20:42:15</time>
      </trkpt>
      <trkpt lat="43.90579" lon="4.8146">
        <ele>15.900001525879</ele>
        <time>2012-04-23T20:42:19</time>
      </trkpt>
      <trkpt lat="43.90643" lon="4.81414">
        <ele>17.199996948242</ele>
        <time>2012-04-23T20:42:23</time>
      </trkpt>
      <trkpt lat="43.90692" lon="4.81372">
        <ele>19.5</ele>
        <time>2012-04-23T20:42:26</time>
      </trkpt>
      <trkpt lat="43.90734" lon="4.81326">
        <ele>17.800003051758</ele>
        <time>2012-04-23T20:42:29</time>
      </trkpt>
      <trkpt lat="43.90772" lon="4.81273">
        <ele>16.900001525879</ele>
        <time>2012-04-23T20:42:33</time>
      </trkpt>
      <trkpt lat="43.90808" lon="4.8122">
        <ele>15</ele>
        <time>2012-04-23T20:42:35</time>
      </trkpt>
      <trkpt lat="43.90845" lon="4.81166">
        <ele>14.099998474121</ele>
        <time>2012-04-23T20:42:38</time>
      </trkpt>
      <trkpt lat="43.90883" lon="4.81112">
        <ele>14.700000762939</ele>
        <time>2012-04-23T20:42:41</time>
      </trkpt>
      <trkpt lat="43.90922" lon="4.81058">
        <ele>14</ele>
        <time>2012-04-23T20:42:44</time>
      </trkpt>
      <trkpt lat="43.90959" lon="4.81005">
        <ele>14</ele>
        <time>2012-04-23T20:42:47</time>
      </trkpt>
      <trkpt lat="43.90999" lon="4.80949">
        <ele>11.900001525879</ele>
        <time>2012-04-23T20:42:50</time>
      </trkpt>
      <trkpt lat="43.91037" lon="4.80894">
        <ele>11.5</ele>
        <time>2012-04-23T20:42:53</time>
      </trkpt>
      <trkpt lat="43.91071" lon="4.8084">
        <ele>13.299999237061</ele>
        <time>2012-04-23T20:42:56</time>
      </trkpt>
      <trkpt lat="43.91092" lon="4.80806">
        <ele>13.5</ele>
        <time>2012-04-23T20:42:58</time>
      </trkpt>
      <trkpt lat="43.91119" lon="4.80759">
        <ele>14.799999237061</ele>
        <time>2012-04-23T20:43:01</time>
      </trkpt>
      <trkpt lat="43.91132" lon="4.80736">
        <ele>16.099998474121</ele>
        <time>2012-04-23T20:43:03</time>
      </trkpt>
      <trkpt lat="43.91142" lon="4.8072">
        <ele>15.599998474121</ele>
        <time>2012-04-23T20:43:08</time>
      </trkpt>
      <trkpt lat="43.91158" lon="4.80705">
        <ele>16.099998474121</ele>
        <time>2012-04-23T20:43:12</time>
      </trkpt>
      <trkpt lat="43.91179" lon="4.80704">
        <ele>15.300003051758</ele>
        <time>2012-04-23T20:43:13</time>
      </trkpt>
      <trkpt lat="43.91214" lon="4.80713">
        <ele>16</ele>
        <time>2012-04-23T20:43:16</time>
      </trkpt>
      <trkpt lat="43.91268" lon="4.80738">
        <ele>19.699996948242</ele>
        <time>2012-04-23T20:43:20</time>
      </trkpt>
      <trkpt lat="43.91282" lon="4.80746">
        <ele>20.800003051758</ele>
        <time>2012-04-23T20:43:21</time>
      </trkpt>
      <trkpt lat="43.91348" lon="4.80775">
        <ele>19.800003051758</ele>
        <time>2012-04-23T20:43:26</time>
      </trkpt>
      <trkpt lat="43.91361" lon="4.80781">
        <ele>21.099998474121</ele>
        <time>2012-04-23T20:43:27</time>
      </trkpt>
      <trkpt lat="43.91435" lon="4.80815">
        <ele>20.199996948242</ele>
        <time>2012-04-23T20:43:32</time>
      </trkpt>
      <trkpt lat="43.9148" lon="4.80837">
        <ele>20.599998474121</ele>
        <time>2012-04-23T20:43:35</time>
      </trkpt>
      <trkpt lat="43.91528" lon="4.80859">
        <ele>23.699996948242</ele>
        <time>2012-04-23T20:43:38</time>
      </trkpt>
      <trkpt lat="43.91576" lon="4.80882">
        <ele>23.400001525879</ele>
        <time>2012-04-23T20:43:41</time>
      </trkpt>
      <trkpt lat="43.91616" lon="4.809">
        <ele>23.599998474121</ele>
        <time>2012-04-23T20:43:44</time>
      </trkpt>
      <trkpt lat="43.91655" lon="4.80919">
        <ele>22.599998474121</ele>
        <time>2012-04-23T20:43:47</time>
      </trkpt>
      <trkpt lat="43.91694" lon="4.80937">
        <ele>23.300003051758</ele>
        <time>2012-04-23T20:43:50</time>
      </trkpt>
      <trkpt lat="43.9173" lon="4.80948">
        <ele>22.599998474121</ele>
        <time>2012-04-23T20:43:54</time>
      </trkpt>
      <trkpt lat="43.91763" lon="4.80948">
        <ele>21.699996948242</ele>
        <time>2012-04-23T20:43:56</time>
      </trkpt>
      <trkpt lat="43.91789" lon="4.80945">
        <ele>19</ele>
        <time>2012-04-23T20:43:59</time>
      </trkpt>
      <trkpt lat="43.91799" lon="4.80944">
        <ele>17.699996948242</ele>
        <time>2012-04-23T20:44:00</time>
      </trkpt>
      <trkpt lat="43.91846" lon="4.80933">
        <ele>18.599998474121</ele>
        <time>2012-04-23T20:44:04</time>
      </trkpt>
      <trkpt lat="43.91892" lon="4.80932">
        <ele>17.599998474121</ele>
        <time>2012-04-23T20:44:08</time>
      </trkpt>
      <trkpt lat="43.91952" lon="4.80929">
        <ele>15</ele>
        <time>2012-04-23T20:44:11</time>
      </trkpt>
      <trkpt lat="43.91995" lon="4.8093">
        <ele>15.599998474121</ele>
        <time>2012-04-23T20:44:14</time>
      </trkpt>
      <trkpt lat="43.92009" lon="4.80931">
        <ele>15.199996948242</ele>
        <time>2012-04-23T20:44:15</time>
      </trkpt>
      <trkpt lat="43.92038" lon="4.80936">
        <ele>14.299999237061</ele>
        <time>2012-04-23T20:44:18</time>
      </trkpt>
      <trkpt lat="43.92076" lon="4.8095">
        <ele>17.199996948242</ele>
        <time>2012-04-23T20:44:23</time>
      </trkpt>
      <trkpt lat="43.92104" lon="4.80937">
        <ele>21.099998474121</ele>
        <time>2012-04-23T20:44:26</time>
      </trkpt>
      <trkpt lat="43.92125" lon="4.80934">
        <ele>19.599998474121</ele>
        <time>2012-04-23T20:44:28</time>
      </trkpt>
      <trkpt lat="43.92182" lon="4.80936">
        <ele>17.800003051758</ele>
        <time>2012-04-23T20:44:33</time>
      </trkpt>
      <trkpt lat="43.92193" lon="4.80936">
        <ele>18.099998474121</ele>
        <time>2012-04-23T20:44:34</time>
      </trkpt>
      <trkpt lat="43.92242" lon="4.80937">
        <ele>17.5</ele>
        <time>2012-04-23T20:44:38</time>
      </trkpt>
      <trkpt lat="43.92293" lon="4.80937">
        <ele>19.699996948242</ele>
        <time>2012-04-23T20:44:42</time>
      </trkpt>
      <trkpt lat="43.92307" lon="4.80936">
        <ele>18.5</ele>
        <time>2012-04-23T20:44:43</time>
      </trkpt>
      <trkpt lat="43.92372" lon="4.80937">
        <ele>15.099998474121</ele>
        <time>2012-04-23T20:44:49</time>
      </trkpt>
      <trkpt lat="43.9241" lon="4.8094">
        <ele>16.900001525879</ele>
        <time>2012-04-23T20:44:51</time>
      </trkpt>
      <trkpt lat="43.92448" lon="4.8094">
        <ele>20.199996948242</ele>
        <time>2012-04-23T20:44:54</time>
      </trkpt>
      <trkpt lat="43.92462" lon="4.80942">
        <ele>20.5</ele>
        <time>2012-04-23T20:44:56</time>
      </trkpt>
      <trkpt lat="43.92525" lon="4.8094">
        <ele>13.599998474121</ele>
        <time>2012-04-23T20:45:00</time>
      </trkpt>
      <trkpt lat="43.92562" lon="4.80942">
        <ele>12</ele>
        <time>2012-04-23T20:45:03</time>
      </trkpt>
      <trkpt lat="43.92603" lon="4.80946">
        <ele>11.700000762939</ele>
        <time>2012-04-23T20:45:06</time>
      </trkpt>
      <trkpt lat="43.9263" lon="4.80944">
        <ele>9</ele>
        <time>2012-04-23T20:45:08</time>
      </trkpt>
      <trkpt lat="43.92684" lon="4.80947">
        <ele>8.5999984741211</ele>
        <time>2012-04-23T20:45:12</time>
      </trkpt>
      <trkpt lat="43.92726" lon="4.8095">
        <ele>12.099998474121</ele>
        <time>2012-04-23T20:45:15</time>
      </trkpt>
      <trkpt lat="43.92751" lon="4.80951">
        <ele>11.200000762939</ele>
        <time>2012-04-23T20:45:17</time>
      </trkpt>
      <trkpt lat="43.92798" lon="4.80966">
        <ele>11.700000762939</ele>
        <time>2012-04-23T20:45:21</time>
      </trkpt>
      <trkpt lat="43.92817" lon="4.8098">
        <ele>13.400001525879</ele>
        <time>2012-04-23T20:45:23</time>
      </trkpt>
      <trkpt lat="43.9284" lon="4.81012">
        <ele>15.5</ele>
        <time>2012-04-23T20:45:26</time>
      </trkpt>
      <trkpt lat="43.92853" lon="4.81061">
        <ele>18.400001525879</ele>
        <time>2012-04-23T20:45:29</time>
      </trkpt>
      <trkpt lat="43.92859" lon="4.81122">
        <ele>19.599998474121</ele>
        <time>2012-04-23T20:45:33</time>
      </trkpt>
      <trkpt lat="43.92865" lon="4.81148">
        <ele>19.800003051758</ele>
        <time>2012-04-23T20:45:35</time>
      </trkpt>
      <trkpt lat="43.92868" lon="4.81184">
        <ele>18.300003051758</ele>
        <time>2012-04-23T20:45:39</time>
      </trkpt>
      <trkpt lat="43.92869" lon="4.81186">
        <ele>17.599998474121</ele>
        <time>2012-04-23T20:45:41</time>
      </trkpt>
      <trkpt lat="43.92871" lon="4.81226">
        <ele>17.199996948242</ele>
        <time>2012-04-23T20:46:03</time>
      </trkpt>
      <trkpt lat="43.92873" lon="4.81251">
        <ele>16.599998474121</ele>
        <time>2012-04-23T20:46:05</time>
      </trkpt>
      <trkpt lat="43.92876" lon="4.81278">
        <ele>14.099998474121</ele>
        <time>2012-04-23T20:46:07</time>
      </trkpt>
      <trkpt lat="43.92884" lon="4.81347">
        <ele>12.799999237061</ele>
        <time>2012-04-23T20:46:12</time>
      </trkpt>
      <trkpt lat="43.92889" lon="4.81394">
        <ele>13</ele>
        <time>2012-04-23T20:46:16</time>
      </trkpt>
      <trkpt lat="43.92892" lon="4.81428">
        <ele>12.299999237061</ele>
        <time>2012-04-23T20:46:17</time>
      </trkpt>
      <trkpt lat="43.92894" lon="4.81478">
        <ele>13.099998474121</ele>
        <time>2012-04-23T20:46:20</time>
      </trkpt>
      <trkpt lat="43.92899" lon="4.8151">
        <ele>12.599998474121</ele>
        <time>2012-04-23T20:46:22</time>
      </trkpt>
      <trkpt lat="43.9291" lon="4.81587">
        <ele>12.799999237061</ele>
        <time>2012-04-23T20:46:27</time>
      </trkpt>
      <trkpt lat="43.92913" lon="4.81618">
        <ele>12.099998474121</ele>
        <time>2012-04-23T20:46:29</time>
      </trkpt>
      <trkpt lat="43.92915" lon="4.81648">
        <ele>12.400001525879</ele>
        <time>2012-04-23T20:46:32</time>
      </trkpt>
      <trkpt lat="43.92923" lon="4.81723">
        <ele>14.5</ele>
        <time>2012-04-23T20:46:36</time>
      </trkpt>
      <trkpt lat="43.92926" lon="4.81749">
        <ele>14</ele>
        <time>2012-04-23T20:46:38</time>
      </trkpt>
      <trkpt lat="43.9293" lon="4.81776">
        <ele>12.599998474121</ele>
        <time>2012-04-23T20:46:41</time>
      </trkpt>
      <trkpt lat="43.92932" lon="4.81827">
        <ele>13.299999237061</ele>
        <time>2012-04-23T20:46:44</time>
      </trkpt>
      <trkpt lat="43.92936" lon="4.81876">
        <ele>15</ele>
        <time>2012-04-23T20:46:48</time>
      </trkpt>
      <trkpt lat="43.92941" lon="4.81913">
        <ele>17.5</ele>
        <time>2012-04-23T20:46:51</time>
      </trkpt>
      <trkpt lat="43.92945" lon="4.81944">
        <ele>18.400001525879</ele>
        <time>2012-04-23T20:46:54</time>
      </trkpt>
      <trkpt lat="43.92947" lon="4.8197">
        <ele>18.900001525879</ele>
        <time>2012-04-23T20:46:58</time>
      </trkpt>
      <trkpt lat="43.92951" lon="4.81995">
        <ele>17.599998474121</ele>
        <time>2012-04-23T20:47:01</time>
      </trkpt>
      <trkpt lat="43.92954" lon="4.82029">
        <ele>17.800003051758</ele>
        <time>2012-04-23T20:47:04</time>
      </trkpt>
      <trkpt lat="43.92957" lon="4.82064">
        <ele>16.199996948242</ele>
        <time>2012-04-23T20:47:07</time>
      </trkpt>
      <trkpt lat="43.92959" lon="4.82088">
        <ele>15.900001525879</ele>
        <time>2012-04-23T20:47:09</time>
      </trkpt>
      <trkpt lat="43.92963" lon="4.82126">
        <ele>15.800003051758</ele>
        <time>2012-04-23T20:47:12</time>
      </trkpt>
      <trkpt lat="43.9297" lon="4.82183">
        <ele>16</ele>
        <time>2012-04-23T20:47:16</time>
      </trkpt>
      <trkpt lat="43.92975" lon="4.82214">
        <ele>15.199996948242</ele>
        <time>2012-04-23T20:47:18</time>
      </trkpt>
      <trkpt lat="43.92982" lon="4.82263">
        <ele>10.299999237061</ele>
        <time>2012-04-23T20:47:22</time>
      </trkpt>
      <trkpt lat="43.92986" lon="4.82327">
        <ele>11.099998474121</ele>
        <time>2012-04-23T20:47:25</time>
      </trkpt>
      <trkpt lat="43.92987" lon="4.82358">
        <ele>11.5</ele>
        <time>2012-04-23T20:47:27</time>
      </trkpt>
      <trkpt lat="43.9299" lon="4.82383">
        <ele>13.599998474121</ele>
        <time>2012-04-23T20:47:29</time>
      </trkpt>
      <trkpt lat="43.93007" lon="4.82444">
        <ele>14.700000762939</ele>
        <time>2012-04-23T20:47:34</time>
      </trkpt>
      <trkpt lat="43.93025" lon="4.82478">
        <ele>16.599998474121</ele>
        <time>2012-04-23T20:47:37</time>
      </trkpt>
      <trkpt lat="43.9305" lon="4.82509">
        <ele>19</ele>
        <time>2012-04-23T20:47:40</time>
      </trkpt>
      <trkpt lat="43.93066" lon="4.8253">
        <ele>17.900001525879</ele>
        <time>2012-04-23T20:47:42</time>
      </trkpt>
      <trkpt lat="43.93089" lon="4.82563">
        <ele>17.300003051758</ele>
        <time>2012-04-23T20:47:45</time>
      </trkpt>
      <trkpt lat="43.93111" lon="4.82613">
        <ele>14.200000762939</ele>
        <time>2012-04-23T20:47:49</time>
      </trkpt>
      <trkpt lat="43.9312" lon="4.82643">
        <ele>14.5</ele>
        <time>2012-04-23T20:47:51</time>
      </trkpt>
      <trkpt lat="43.93133" lon="4.82699">
        <ele>15.800003051758</ele>
        <time>2012-04-23T20:47:55</time>
      </trkpt>
      <trkpt lat="43.93141" lon="4.82735">
        <ele>14.400001525879</ele>
        <time>2012-04-23T20:47:58</time>
      </trkpt>
      <trkpt lat="43.93149" lon="4.82768">
        <ele>14.299999237061</ele>
        <time>2012-04-23T20:48:01</time>
      </trkpt>
      <trkpt lat="43.93157" lon="4.82788">
        <ele>12.5</ele>
        <time>2012-04-23T20:48:03</time>
      </trkpt>
      <trkpt lat="43.93158" lon="4.82826">
        <ele>15.699996948242</ele>
        <time>2012-04-23T20:48:07</time>
      </trkpt>
      <trkpt lat="43.93161" lon="4.82844">
        <ele>14.200000762939</ele>
        <time>2012-04-23T20:48:09</time>
      </trkpt>
      <trkpt lat="43.93174" lon="4.8288">
        <ele>14.400001525879</ele>
        <time>2012-04-23T20:48:13</time>
      </trkpt>
      <trkpt lat="43.93182" lon="4.82901">
        <ele>15.5</ele>
        <time>2012-04-23T20:48:15</time>
      </trkpt>
      <trkpt lat="43.93201" lon="4.82933">
        <ele>16</ele>
        <time>2012-04-23T20:48:18</time>
      </trkpt>
      <trkpt lat="43.93236" lon="4.82977">
        <ele>15.599998474121</ele>
        <time>2012-04-23T20:48:22</time>
      </trkpt>
      <trkpt lat="43.93256" lon="4.83003">
        <ele>16.400001525879</ele>
        <time>2012-04-23T20:48:24</time>
      </trkpt>
      <trkpt lat="43.93291" lon="4.83048">
        <ele>15.099998474121</ele>
        <time>2012-04-23T20:48:28</time>
      </trkpt>
      <trkpt lat="43.93311" lon="4.83077">
        <ele>14</ele>
        <time>2012-04-23T20:48:31</time>
      </trkpt>
      <trkpt lat="43.93319" lon="4.83088">
        <ele>12.200000762939</ele>
        <time>2012-04-23T20:48:33</time>
      </trkpt>
      <trkpt lat="43.9335" lon="4.83125">
        <ele>16.099998474121</ele>
        <time>2012-04-23T20:48:37</time>
      </trkpt>
      <trkpt lat="43.93363" lon="4.83142">
        <ele>14.900001525879</ele>
        <time>2012-04-23T20:48:40</time>
      </trkpt>
      <trkpt lat="43.93373" lon="4.83187">
        <ele>16</ele>
        <time>2012-04-23T20:48:43</time>
      </trkpt>
      <trkpt lat="43.93357" lon="4.83224">
        <ele>15.800003051758</ele>
        <time>2012-04-23T20:48:47</time>
      </trkpt>
      <trkpt lat="43.93334" lon="4.8327">
        <ele>15</ele>
        <time>2012-04-23T20:48:49</time>
      </trkpt>
      <trkpt lat="43.93311" lon="4.83314">
        <ele>15.699996948242</ele>
        <time>2012-04-23T20:48:52</time>
      </trkpt>
      <trkpt lat="43.93294" lon="4.83346">
        <ele>17.800003051758</ele>
        <time>2012-04-23T20:48:54</time>
      </trkpt>
      <trkpt lat="43.93253" lon="4.83411">
        <ele>17.199996948242</ele>
        <time>2012-04-23T20:48:58</time>
      </trkpt>
      <trkpt lat="43.93221" lon="4.8346">
        <ele>17.300003051758</ele>
        <time>2012-04-23T20:49:01</time>
      </trkpt>
      <trkpt lat="43.932" lon="4.83491">
        <ele>13.700000762939</ele>
        <time>2012-04-23T20:49:03</time>
      </trkpt>
      <trkpt lat="43.93166" lon="4.83542">
        <ele>19</ele>
        <time>2012-04-23T20:49:06</time>
      </trkpt>
      <trkpt lat="43.93143" lon="4.83574">
        <ele>20.900001525879</ele>
        <time>2012-04-23T20:49:08</time>
      </trkpt>
      <trkpt lat="43.9311" lon="4.8362">
        <ele>20.599998474121</ele>
        <time>2012-04-23T20:49:11</time>
      </trkpt>
      <trkpt lat="43.93053" lon="4.83709">
        <ele>22.099998474121</ele>
        <time>2012-04-23T20:49:16</time>
      </trkpt>
      <trkpt lat="43.93019" lon="4.8376">
        <ele>26.099998474121</ele>
        <time>2012-04-23T20:49:19</time>
      </trkpt>
      <trkpt lat="43.93" lon="4.83788">
        <ele>28.300003051758</ele>
        <time>2012-04-23T20:49:22</time>
      </trkpt>
      <trkpt lat="43.92998" lon="4.83794">
        <ele>28.199996948242</ele>
        <time>2012-04-23T20:49:26</time>
      </trkpt>
      <trkpt lat="43.92997" lon="4.83798">
        <ele>27.900001525879</ele>
        <time>2012-04-23T20:49:27</time>
      </trkpt>
      <trkpt lat="43.92979" lon="4.83824">
        <ele>20.300003051758</ele>
        <time>2012-04-23T20:49:46</time>
      </trkpt>
      <trkpt lat="43.92965" lon="4.83866">
        <ele>20.5</ele>
        <time>2012-04-23T20:49:49</time>
      </trkpt>
      <trkpt lat="43.92951" lon="4.83898">
        <ele>21.5</ele>
        <time>2012-04-23T20:49:51</time>
      </trkpt>
      <trkpt lat="43.92908" lon="4.83989">
        <ele>20.599998474121</ele>
        <time>2012-04-23T20:49:56</time>
      </trkpt>
      <trkpt lat="43.92889" lon="4.84024">
        <ele>20.199996948242</ele>
        <time>2012-04-23T20:49:58</time>
      </trkpt>
      <trkpt lat="43.92853" lon="4.84102">
        <ele>21</ele>
        <time>2012-04-23T20:50:02</time>
      </trkpt>
      <trkpt lat="43.92826" lon="4.8416">
        <ele>20.699996948242</ele>
        <time>2012-04-23T20:50:05</time>
      </trkpt>
      <trkpt lat="43.928" lon="4.84217">
        <ele>20.900001525879</ele>
        <time>2012-04-23T20:50:08</time>
      </trkpt>
      <trkpt lat="43.9278" lon="4.84253">
        <ele>22.199996948242</ele>
        <time>2012-04-23T20:50:10</time>
      </trkpt>
      <trkpt lat="43.92745" lon="4.8433">
        <ele>21.5</ele>
        <time>2012-04-23T20:50:14</time>
      </trkpt>
      <trkpt lat="43.92721" lon="4.8439">
        <ele>22.300003051758</ele>
        <time>2012-04-23T20:50:17</time>
      </trkpt>
      <trkpt lat="43.92712" lon="4.84407">
        <ele>24.099998474121</ele>
        <time>2012-04-23T20:50:18</time>
      </trkpt>
      <trkpt lat="43.92679" lon="4.84466">
        <ele>21.400001525879</ele>
        <time>2012-04-23T20:50:23</time>
      </trkpt>
      <trkpt lat="43.92656" lon="4.84485">
        <ele>18.800003051758</ele>
        <time>2012-04-23T20:50:26</time>
      </trkpt>
      <trkpt lat="43.92647" lon="4.84513">
        <ele>18.099998474121</ele>
        <time>2012-04-23T20:50:30</time>
      </trkpt>
      <trkpt lat="43.92662" lon="4.84543">
        <ele>20.300003051758</ele>
        <time>2012-04-23T20:50:32</time>
      </trkpt>
      <trkpt lat="43.92691" lon="4.84545">
        <ele>17.800003051758</ele>
        <time>2012-04-23T20:50:35</time>
      </trkpt>
      <trkpt lat="43.92722" lon="4.84557">
        <ele>18.300003051758</ele>
        <time>2012-04-23T20:50:39</time>
      </trkpt>
      <trkpt lat="43.92752" lon="4.84579">
        <ele>20.699996948242</ele>
        <time>2012-04-23T20:50:41</time>
      </trkpt>
      <trkpt lat="43.92777" lon="4.84596">
        <ele>20.5</ele>
        <time>2012-04-23T20:50:44</time>
      </trkpt>
      <trkpt lat="43.92792" lon="4.84608">
        <ele>19.199996948242</ele>
        <time>2012-04-23T20:50:46</time>
      </trkpt>
      <trkpt lat="43.92831" lon="4.84632">
        <ele>18.800003051758</ele>
        <time>2012-04-23T20:50:50</time>
      </trkpt>
      <trkpt lat="43.92846" lon="4.84647">
        <ele>20</ele>
        <time>2012-04-23T20:50:52</time>
      </trkpt>
      <trkpt lat="43.92874" lon="4.84664">
        <ele>21.699996948242</ele>
        <time>2012-04-23T20:50:56</time>
      </trkpt>
      <trkpt lat="43.92903" lon="4.84667">
        <ele>21.5</ele>
        <time>2012-04-23T20:50:59</time>
      </trkpt>
      <trkpt lat="43.92914" lon="4.8467">
        <ele>21.099998474121</ele>
        <time>2012-04-23T20:51:00</time>
      </trkpt>
      <trkpt lat="43.92952" lon="4.84681">
        <ele>19.599998474121</ele>
        <time>2012-04-23T20:51:05</time>
      </trkpt>
      <trkpt lat="43.92977" lon="4.84689">
        <ele>17.599998474121</ele>
        <time>2012-04-23T20:51:09</time>
      </trkpt>
      <trkpt lat="43.92998" lon="4.84696">
        <ele>15.900001525879</ele>
        <time>2012-04-23T20:51:11</time>
      </trkpt>
      <trkpt lat="43.9302" lon="4.84705">
        <ele>16.300003051758</ele>
        <time>2012-04-23T20:51:14</time>
      </trkpt>
      <trkpt lat="43.9305" lon="4.84717">
        <ele>16.199996948242</ele>
        <time>2012-04-23T20:51:17</time>
      </trkpt>
      <trkpt lat="43.93069" lon="4.84724">
        <ele>16.800003051758</ele>
        <time>2012-04-23T20:51:19</time>
      </trkpt>
      <trkpt lat="43.93101" lon="4.84725">
        <ele>18.099998474121</ele>
        <time>2012-04-23T20:51:23</time>
      </trkpt>
      <trkpt lat="43.9311" lon="4.84729">
        <ele>17.400001525879</ele>
        <time>2012-04-23T20:51:24</time>
      </trkpt>
      <trkpt lat="43.93161" lon="4.84735">
        <ele>23.699996948242</ele>
        <time>2012-04-23T20:51:29</time>
      </trkpt>
      <trkpt lat="43.93196" lon="4.84735">
        <ele>24.199996948242</ele>
        <time>2012-04-23T20:51:32</time>
      </trkpt>
      <trkpt lat="43.93208" lon="4.84733">
        <ele>24.199996948242</ele>
        <time>2012-04-23T20:51:34</time>
      </trkpt>
      <trkpt lat="43.93278" lon="4.84736">
        <ele>27.800003051758</ele>
        <time>2012-04-23T20:51:38</time>
      </trkpt>
      <trkpt lat="43.93324" lon="4.84745">
        <ele>24</ele>
        <time>2012-04-23T20:51:41</time>
      </trkpt>
      <trkpt lat="43.93371" lon="4.84757">
        <ele>23</ele>
        <time>2012-04-23T20:51:44</time>
      </trkpt>
      <trkpt lat="43.93415" lon="4.84774">
        <ele>22.400001525879</ele>
        <time>2012-04-23T20:51:47</time>
      </trkpt>
      <trkpt lat="43.9346" lon="4.84792">
        <ele>22.5</ele>
        <time>2012-04-23T20:51:50</time>
      </trkpt>
      <trkpt lat="43.93493" lon="4.84811">
        <ele>18.599998474121</ele>
        <time>2012-04-23T20:51:53</time>
      </trkpt>
      <trkpt lat="43.93519" lon="4.84822">
        <ele>16.699996948242</ele>
        <time>2012-04-23T20:51:56</time>
      </trkpt>
      <trkpt lat="43.9353" lon="4.84837">
        <ele>18</ele>
        <time>2012-04-23T20:51:59</time>
      </trkpt>
      <trkpt lat="43.93555" lon="4.84854">
        <ele>18.5</ele>
        <time>2012-04-23T20:52:02</time>
      </trkpt>
      <trkpt lat="43.93576" lon="4.84853">
        <ele>18</ele>
        <time>2012-04-23T20:52:04</time>
      </trkpt>
      <trkpt lat="43.93611" lon="4.84867">
        <ele>18.400001525879</ele>
        <time>2012-04-23T20:52:07</time>
      </trkpt>
      <trkpt lat="43.93668" lon="4.84891">
        <ele>18.400001525879</ele>
        <time>2012-04-23T20:52:11</time>
      </trkpt>
      <trkpt lat="43.93709" lon="4.84909">
        <ele>17.900001525879</ele>
        <time>2012-04-23T20:52:15</time>
      </trkpt>
      <trkpt lat="43.93749" lon="4.84925">
        <ele>17.800003051758</ele>
        <time>2012-04-23T20:52:17</time>
      </trkpt>
      <trkpt lat="43.93802" lon="4.84959">
        <ele>18.800003051758</ele>
        <time>2012-04-23T20:52:22</time>
      </trkpt>
      <trkpt lat="43.93841" lon="4.84992">
        <ele>19.199996948242</ele>
        <time>2012-04-23T20:52:24</time>
      </trkpt>
      <trkpt lat="43.93879" lon="4.85025">
        <ele>17.300003051758</ele>
        <time>2012-04-23T20:52:27</time>
      </trkpt>
      <trkpt lat="43.93923" lon="4.85049">
        <ele>17</ele>
        <time>2012-04-23T20:52:31</time>
      </trkpt>
      <trkpt lat="43.93955" lon="4.8506">
        <ele>15</ele>
        <time>2012-04-23T20:52:32</time>
      </trkpt>
      <trkpt lat="43.94003" lon="4.85081">
        <ele>14.900001525879</ele>
        <time>2012-04-23T20:52:35</time>
      </trkpt>
      <trkpt lat="43.94066" lon="4.85122">
        <ele>13.299999237061</ele>
        <time>2012-04-23T20:52:40</time>
      </trkpt>
      <trkpt lat="43.94112" lon="4.8515">
        <ele>14.700000762939</ele>
        <time>2012-04-23T20:52:42</time>
      </trkpt>
      <trkpt lat="43.94156" lon="4.8518">
        <ele>14.200000762939</ele>
        <time>2012-04-23T20:52:45</time>
      </trkpt>
      <trkpt lat="43.94184" lon="4.85199">
        <ele>14.799999237061</ele>
        <time>2012-04-23T20:52:47</time>
      </trkpt>
      <trkpt lat="43.94226" lon="4.85228">
        <ele>16.199996948242</ele>
        <time>2012-04-23T20:52:50</time>
      </trkpt>
      <trkpt lat="43.94283" lon="4.85272">
        <ele>15.199996948242</ele>
        <time>2012-04-23T20:52:54</time>
      </trkpt>
      <trkpt lat="43.94325" lon="4.85308">
        <ele>13.299999237061</ele>
        <time>2012-04-23T20:52:57</time>
      </trkpt>
      <trkpt lat="43.94369" lon="4.85342">
        <ele>10.099998474121</ele>
        <time>2012-04-23T20:53:01</time>
      </trkpt>
      <trkpt lat="43.94383" lon="4.85353">
        <ele>10.099998474121</ele>
        <time>2012-04-23T20:53:01</time>
      </trkpt>
      <trkpt lat="43.94443" lon="4.85407">
        <ele>12.200000762939</ele>
        <time>2012-04-23T20:53:06</time>
      </trkpt>
      <trkpt lat="43.94472" lon="4.85432">
        <ele>11.599998474121</ele>
        <time>2012-04-23T20:53:09</time>
      </trkpt>
      <trkpt lat="43.94489" lon="4.85449">
        <ele>12.5</ele>
        <time>2012-04-23T20:53:12</time>
      </trkpt>
      <trkpt lat="43.94498" lon="4.85465">
        <ele>12.299999237061</ele>
        <time>2012-04-23T20:53:14</time>
      </trkpt>
      <trkpt lat="43.94528" lon="4.85482">
        <ele>12.299999237061</ele>
        <time>2012-04-23T20:53:19</time>
      </trkpt>
      <trkpt lat="43.94559" lon="4.85498">
        <ele>8.5</ele>
        <time>2012-04-23T20:53:21</time>
      </trkpt>
      <trkpt lat="43.94596" lon="4.85515">
        <ele>9.4000015258789</ele>
        <time>2012-04-23T20:53:24</time>
      </trkpt>
      <trkpt lat="43.9464" lon="4.85537">
        <ele>11.400001525879</ele>
        <time>2012-04-23T20:53:27</time>
      </trkpt>
      <trkpt lat="43.94689" lon="4.85562">
        <ele>12.599998474121</ele>
        <time>2012-04-23T20:53:30</time>
      </trkpt>
      <trkpt lat="43.94722" lon="4.85578">
        <ele>11.599998474121</ele>
        <time>2012-04-23T20:53:32</time>
      </trkpt>
      <trkpt lat="43.94788" lon="4.85611">
        <ele>9</ele>
        <time>2012-04-23T20:53:36</time>
      </trkpt>
      <trkpt lat="43.94835" lon="4.85633">
        <ele>7.5999984741211</ele>
        <time>2012-04-23T20:53:39</time>
      </trkpt>
      <trkpt lat="43.94877" lon="4.85658">
        <ele>8.2000007629394</ele>
        <time>2012-04-23T20:53:42</time>
      </trkpt>
      <trkpt lat="43.9489" lon="4.85669">
        <ele>9.2999992370606</ele>
        <time>2012-04-23T20:53:43</time>
      </trkpt>
      <trkpt lat="43.94938" lon="4.85742">
        <ele>9</ele>
        <time>2012-04-23T20:53:48</time>
      </trkpt>
      <trkpt lat="43.94951" lon="4.85784">
        <ele>10.5</ele>
        <time>2012-04-23T20:53:51</time>
      </trkpt>
      <trkpt lat="43.94953" lon="4.85823">
        <ele>8.5999984741211</ele>
        <time>2012-04-23T20:53:54</time>
      </trkpt>
      <trkpt lat="43.94959" lon="4.85856">
        <ele>8.7999992370606</ele>
        <time>2012-04-23T20:53:56</time>
      </trkpt>
      <trkpt lat="43.94959" lon="4.85929">
        <ele>10.799999237061</ele>
        <time>2012-04-23T20:54:00</time>
      </trkpt>
      <trkpt lat="43.94965" lon="4.85985">
        <ele>13.099998474121</ele>
        <time>2012-04-23T20:54:03</time>
      </trkpt>
      <trkpt lat="43.94979" lon="4.86032">
        <ele>14.599998474121</ele>
        <time>2012-04-23T20:54:06</time>
      </trkpt>
      <trkpt lat="43.95003" lon="4.86063">
        <ele>15.199996948242</ele>
        <time>2012-04-23T20:54:09</time>
      </trkpt>
      <trkpt lat="43.95034" lon="4.86067">
        <ele>10</ele>
        <time>2012-04-23T20:54:13</time>
      </trkpt>
      <trkpt lat="43.95062" lon="4.86044">
        <ele>10.700000762939</ele>
        <time>2012-04-23T20:54:15</time>
      </trkpt>
      <trkpt lat="43.95088" lon="4.86024">
        <ele>8.5999984741211</ele>
        <time>2012-04-23T20:54:18</time>
      </trkpt>
      <trkpt lat="43.95118" lon="4.86029">
        <ele>8.4000015258789</ele>
        <time>2012-04-23T20:54:22</time>
      </trkpt>
      <trkpt lat="43.95133" lon="4.86072">
        <ele>12.099998474121</ele>
        <time>2012-04-23T20:54:24</time>
      </trkpt>
      <trkpt lat="43.95152" lon="4.86122">
        <ele>12.599998474121</ele>
        <time>2012-04-23T20:54:27</time>
      </trkpt>
      <trkpt lat="43.9516" lon="4.8614">
        <ele>12.700000762939</ele>
        <time>2012-04-23T20:54:29</time>
      </trkpt>
      <trkpt lat="43.95191" lon="4.86234">
        <ele>15</ele>
        <time>2012-04-23T20:54:33</time>
      </trkpt>
      <trkpt lat="43.95201" lon="4.86274">
        <ele>15.400001525879</ele>
        <time>2012-04-23T20:54:35</time>
      </trkpt>
      <trkpt lat="43.95216" lon="4.86335">
        <ele>12.900001525879</ele>
        <time>2012-04-23T20:54:38</time>
      </trkpt>
      <trkpt lat="43.95225" lon="4.86377">
        <ele>13.599998474121</ele>
        <time>2012-04-23T20:54:40</time>
      </trkpt>
      <trkpt lat="43.95242" lon="4.86485">
        <ele>15.400001525879</ele>
        <time>2012-04-23T20:54:45</time>
      </trkpt>
      <trkpt lat="43.95252" lon="4.86552">
        <ele>14.5</ele>
        <time>2012-04-23T20:54:48</time>
      </trkpt>
      <trkpt lat="43.95258" lon="4.86598">
        <ele>13.200000762939</ele>
        <time>2012-04-23T20:54:50</time>
      </trkpt>
      <trkpt lat="43.95275" lon="4.86718">
        <ele>11.599998474121</ele>
        <time>2012-04-23T20:54:55</time>
      </trkpt>
      <trkpt lat="43.95288" lon="4.86792">
        <ele>12.900001525879</ele>
        <time>2012-04-23T20:54:58</time>
      </trkpt>
      <trkpt lat="43.95295" lon="4.86843">
        <ele>13</ele>
        <time>2012-04-23T20:55:00</time>
      </trkpt>
      <trkpt lat="43.95307" lon="4.86947">
        <ele>11.700000762939</ele>
        <time>2012-04-23T20:55:04</time>
      </trkpt>
      <trkpt lat="43.95313" lon="4.87">
        <ele>11.200000762939</ele>
        <time>2012-04-23T20:55:06</time>
      </trkpt>
      <trkpt lat="43.95321" lon="4.87103">
        <ele>12.099998474121</ele>
        <time>2012-04-23T20:55:10</time>
      </trkpt>
      <trkpt lat="43.95327" lon="4.87179">
        <ele>13.299999237061</ele>
        <time>2012-04-23T20:55:13</time>
      </trkpt>
      <trkpt lat="43.95331" lon="4.87257">
        <ele>12.599998474121</ele>
        <time>2012-04-23T20:55:17</time>
      </trkpt>
      <trkpt lat="43.95332" lon="4.87309">
        <ele>12.400001525879</ele>
        <time>2012-04-23T20:55:19</time>
      </trkpt>
      <trkpt lat="43.95329" lon="4.8741">
        <ele>11.799999237061</ele>
        <time>2012-04-23T20:55:22</time>
      </trkpt>
      <trkpt lat="43.95327" lon="4.87488">
        <ele>10.5</ele>
        <time>2012-04-23T20:55:25</time>
      </trkpt>
      <trkpt lat="43.95322" lon="4.87567">
        <ele>12.5</ele>
        <time>2012-04-23T20:55:28</time>
      </trkpt>
      <trkpt lat="43.95319" lon="4.87643">
        <ele>12.700000762939</ele>
        <time>2012-04-23T20:55:31</time>
      </trkpt>
      <trkpt lat="43.95317" lon="4.87694">
        <ele>13.599998474121</ele>
        <time>2012-04-23T20:55:33</time>
      </trkpt>
      <trkpt lat="43.95313" lon="4.87799">
        <ele>14.400001525879</ele>
        <time>2012-04-23T20:55:37</time>
      </trkpt>
      <trkpt lat="43.9531" lon="4.87875">
        <ele>16.099998474121</ele>
        <time>2012-04-23T20:55:40</time>
      </trkpt>
      <trkpt lat="43.95305" lon="4.87949">
        <ele>16.5</ele>
        <time>2012-04-23T20:55:43</time>
      </trkpt>
      <trkpt lat="43.953" lon="4.88023">
        <ele>17</ele>
        <time>2012-04-23T20:55:46</time>
      </trkpt>
      <trkpt lat="43.95296" lon="4.88096">
        <ele>17.599998474121</ele>
        <time>2012-04-23T20:55:49</time>
      </trkpt>
      <trkpt lat="43.9529" lon="4.88169">
        <ele>18.699996948242</ele>
        <time>2012-04-23T20:55:52</time>
      </trkpt>
      <trkpt lat="43.95289" lon="4.88215">
        <ele>20.5</ele>
        <time>2012-04-23T20:55:54</time>
      </trkpt>
      <trkpt lat="43.95289" lon="4.88308">
        <ele>20.800003051758</ele>
        <time>2012-04-23T20:55:58</time>
      </trkpt>
      <trkpt lat="43.95289" lon="4.88328">
        <ele>20.699996948242</ele>
        <time>2012-04-23T20:55:59</time>
      </trkpt>
      <trkpt lat="43.9529" lon="4.88409">
        <ele>19.400001525879</ele>
        <time>2012-04-23T20:56:05</time>
      </trkpt>
      <trkpt lat="43.95284" lon="4.88439">
        <ele>20.699996948242</ele>
        <time>2012-04-23T20:56:07</time>
      </trkpt>
      <trkpt lat="43.95285" lon="4.88466">
        <ele>21.099998474121</ele>
        <time>2012-04-23T20:56:10</time>
      </trkpt>
      <trkpt lat="43.95289" lon="4.88473">
        <ele>20.800003051758</ele>
        <time>2012-04-23T20:56:11</time>
      </trkpt>
      <trkpt lat="43.95313" lon="4.8845">
        <ele>22.599998474121</ele>
        <time>2012-04-23T20:56:16</time>
      </trkpt>
      <trkpt lat="43.95318" lon="4.88421">
        <ele>25</ele>
        <time>2012-04-23T20:56:19</time>
      </trkpt>
      <trkpt lat="43.95322" lon="4.88403">
        <ele>25.900001525879</ele>
        <time>2012-04-23T20:56:21</time>
      </trkpt>
      <trkpt lat="43.95331" lon="4.88391">
        <ele>25.900001525879</ele>
        <time>2012-04-23T20:56:23</time>
      </trkpt>
      <trkpt lat="43.95381" lon="4.88386">
        <ele>27.400001525879</ele>
        <time>2012-04-23T20:56:28</time>
      </trkpt>
      <trkpt lat="43.95391" lon="4.88387">
        <ele>30.199996948242</ele>
        <time>2012-04-23T20:56:29</time>
      </trkpt>
      <trkpt lat="43.95414" lon="4.88384">
        <ele>27.599998474121</ele>
        <time>2012-04-23T20:56:32</time>
      </trkpt>
      <trkpt lat="43.95442" lon="4.88379">
        <ele>29.900001525879</ele>
        <time>2012-04-23T20:56:35</time>
      </trkpt>
      <trkpt lat="43.95468" lon="4.88377">
        <ele>27.800003051758</ele>
        <time>2012-04-23T20:56:39</time>
      </trkpt>
      <trkpt lat="43.95507" lon="4.88372">
        <ele>28.300003051758</ele>
        <time>2012-04-23T20:56:44</time>
      </trkpt>
      <trkpt lat="43.95517" lon="4.88371">
        <ele>30.199996948242</ele>
        <time>2012-04-23T20:56:44</time>
      </trkpt>
      <trkpt lat="43.9556" lon="4.88361">
        <ele>27.699996948242</ele>
        <time>2012-04-23T20:56:48</time>
      </trkpt>
      <trkpt lat="43.95583" lon="4.88357">
        <ele>26.099998474121</ele>
        <time>2012-04-23T20:56:51</time>
      </trkpt>
      <trkpt lat="43.95613" lon="4.88351">
        <ele>20.900001525879</ele>
        <time>2012-04-23T20:56:55</time>
      </trkpt>
      <trkpt lat="43.95641" lon="4.88351">
        <ele>27.699996948242</ele>
        <time>2012-04-23T20:56:58</time>
      </trkpt>
      <trkpt lat="43.95659" lon="4.88345">
        <ele>25.599998474121</ele>
        <time>2012-04-23T20:57:01</time>
      </trkpt>
      <trkpt lat="43.95669" lon="4.88342">
        <ele>26.099998474121</ele>
        <time>2012-04-23T20:57:03</time>
      </trkpt>
      <trkpt lat="43.95673" lon="4.88321">
        <ele>24.800003051758</ele>
        <time>2012-04-23T20:57:07</time>
      </trkpt>
      <trkpt lat="43.95672" lon="4.88296">
        <ele>22.699996948242</ele>
        <time>2012-04-23T20:57:10</time>
      </trkpt>
      <trkpt lat="43.95682" lon="4.88262">
        <ele>17.300003051758</ele>
        <time>2012-04-23T20:57:13</time>
      </trkpt>
      <trkpt lat="43.95685" lon="4.88241">
        <ele>20.199996948242</ele>
        <time>2012-04-23T20:57:15</time>
      </trkpt>
      <trkpt lat="43.95695" lon="4.88193">
        <ele>21.599998474121</ele>
        <time>2012-04-23T20:57:19</time>
      </trkpt>
      <trkpt lat="43.95702" lon="4.88158">
        <ele>15.599998474121</ele>
        <time>2012-04-23T20:57:22</time>
      </trkpt>
      <trkpt lat="43.95707" lon="4.88137">
        <ele>11.400001525879</ele>
        <time>2012-04-23T20:57:25</time>
      </trkpt>
      <trkpt lat="43.95715" lon="4.88105">
        <ele>5.0999984741211</ele>
        <time>2012-04-23T20:57:28</time>
      </trkpt>
      <trkpt lat="43.95709" lon="4.88089">
        <ele>6.2999992370606</ele>
        <time>2012-04-23T20:57:31</time>
      </trkpt>
      <trkpt lat="43.95689" lon="4.88083">
        <ele>9.5</ele>
        <time>2012-04-23T20:57:34</time>
      </trkpt>
      <trkpt lat="43.95684" lon="4.88069">
        <ele>12.299999237061</ele>
        <time>2012-04-23T20:57:38</time>
      </trkpt>
      <trkpt lat="43.95683" lon="4.88053">
        <ele>12.900001525879</ele>
        <time>2012-04-23T20:57:40</time>
      </trkpt>
      <trkpt lat="43.95672" lon="4.88041">
        <ele>14.700000762939</ele>
        <time>2012-04-23T20:57:43</time>
      </trkpt>
      <trkpt lat="43.95656" lon="4.88036">
        <ele>12.700000762939</ele>
        <time>2012-04-23T20:57:47</time>
      </trkpt>
      <trkpt lat="43.95638" lon="4.88037">
        <ele>11.799999237061</ele>
        <time>2012-04-23T20:57:49</time>
      </trkpt>
      <trkpt lat="43.95624" lon="4.88039">
        <ele>11.799999237061</ele>
        <time>2012-04-23T20:57:52</time>
      </trkpt>
      <trkpt lat="43.95622" lon="4.88042">
        <ele>13.400001525879</ele>
        <time>2012-04-23T20:57:56</time>
      </trkpt>
      <trkpt lat="43.95622" lon="4.88046">
        <ele>12.900001525879</ele>
        <time>2012-04-23T20:57:58</time>
      </trkpt>
    </trkseg>
  </trk>
</gpx>